<?xml version="1.0" encoding="UTF-8" standalone="no" ?>
<gpx xmlns="http://www.topografix.com/GPX/1/1" xmlns:xsi="http://www.w3.org/2001/XMLSchema-instance" xsi:schemaLocation="http://www.topografix.com/GPX/1/1 http://www.topografix.com/GPX/1/1/gpx.xsd" version="1.1" creator="VisuGPX - https://www.visugpx.com">
  <metadata>
    <name>83-Me-Lorgues </name>
    <desc><![CDATA[83-Me-Lorgues  : les Maneous
2023-05-31]]></desc>
  </metadata>
  <trk>
    <name><![CDATA[2023-05-31-Lorgues Manéoux]]></name>
    <extensions>
      <line xmlns="http://www.topografix.com/GPX/gpx_style/0/2">
        <width>3</width>
      </line>
    </extensions>
    <trkseg>
      <trkpt lat="43.44523" lon="6.38246">
        <ele>174</ele>
        <time>2023-05-31T07:04:02.000Z</time>
      </trkpt>
      <trkpt lat="43.44563" lon="6.38297">
        <ele>174</ele>
        <time>2023-05-31T07:04:02.912Z</time>
      </trkpt>
      <trkpt lat="43.44607" lon="6.38309">
        <ele>175.5</ele>
        <time>2023-05-31T07:04:03.683Z</time>
      </trkpt>
      <trkpt lat="43.44659" lon="6.38372">
        <ele>178</ele>
        <time>2023-05-31T07:04:04.848Z</time>
      </trkpt>
      <trkpt lat="43.44707" lon="6.38378">
        <ele>179.8</ele>
        <time>2023-05-31T07:04:05.676Z</time>
      </trkpt>
      <trkpt lat="43.4475" lon="6.38393">
        <ele>182</ele>
        <time>2023-05-31T07:04:06.420Z</time>
      </trkpt>
      <trkpt lat="43.44779" lon="6.3846">
        <ele>183.3</ele>
        <time>2023-05-31T07:04:07.373Z</time>
      </trkpt>
      <trkpt lat="43.44861" lon="6.38502">
        <ele>186.2</ele>
        <time>2023-05-31T07:04:08.865Z</time>
      </trkpt>
      <trkpt lat="43.44961" lon="6.38287">
        <ele>193.1</ele>
        <time>2023-05-31T07:04:12.000Z</time>
      </trkpt>
      <trkpt lat="43.44967" lon="6.3827">
        <ele>193.4</ele>
        <time>2023-05-31T07:04:22.000Z</time>
      </trkpt>
      <trkpt lat="43.44974" lon="6.38261">
        <ele>193.4</ele>
        <time>2023-05-31T07:04:31.000Z</time>
      </trkpt>
      <trkpt lat="43.44981" lon="6.38251">
        <ele>193.5</ele>
        <time>2023-05-31T07:04:39.000Z</time>
      </trkpt>
      <trkpt lat="43.44987" lon="6.38243">
        <ele>193</ele>
        <time>2023-05-31T07:04:47.000Z</time>
      </trkpt>
      <trkpt lat="43.44995" lon="6.38234">
        <ele>193.4</ele>
        <time>2023-05-31T07:04:54.000Z</time>
      </trkpt>
      <trkpt lat="43.45001" lon="6.38224">
        <ele>193.7</ele>
        <time>2023-05-31T07:05:01.000Z</time>
      </trkpt>
      <trkpt lat="43.45005" lon="6.38213">
        <ele>193.8</ele>
        <time>2023-05-31T07:05:07.000Z</time>
      </trkpt>
      <trkpt lat="43.45012" lon="6.38202">
        <ele>193.7</ele>
        <time>2023-05-31T07:05:15.000Z</time>
      </trkpt>
      <trkpt lat="43.45013" lon="6.38189">
        <ele>194</ele>
        <time>2023-05-31T07:05:22.000Z</time>
      </trkpt>
      <trkpt lat="43.45013" lon="6.38187">
        <ele>194.3</ele>
        <time>2023-05-31T07:05:27.000Z</time>
      </trkpt>
      <trkpt lat="43.45018" lon="6.38175">
        <ele>195.1</ele>
        <time>2023-05-31T07:06:28.000Z</time>
      </trkpt>
      <trkpt lat="43.45023" lon="6.38164">
        <ele>194.9</ele>
        <time>2023-05-31T07:06:36.000Z</time>
      </trkpt>
      <trkpt lat="43.45027" lon="6.38152">
        <ele>195.9</ele>
        <time>2023-05-31T07:06:49.000Z</time>
      </trkpt>
      <trkpt lat="43.45033" lon="6.38141">
        <ele>195.9</ele>
        <time>2023-05-31T07:06:58.000Z</time>
      </trkpt>
      <trkpt lat="43.45037" lon="6.38129">
        <ele>196.8</ele>
        <time>2023-05-31T07:07:06.000Z</time>
      </trkpt>
      <trkpt lat="43.45042" lon="6.38118">
        <ele>197.5</ele>
        <time>2023-05-31T07:07:15.000Z</time>
      </trkpt>
      <trkpt lat="43.45047" lon="6.38108">
        <ele>198.4</ele>
        <time>2023-05-31T07:07:21.000Z</time>
      </trkpt>
      <trkpt lat="43.45052" lon="6.38096">
        <ele>198.8</ele>
        <time>2023-05-31T07:07:31.000Z</time>
      </trkpt>
      <trkpt lat="43.45058" lon="6.38086">
        <ele>199.8</ele>
        <time>2023-05-31T07:07:39.000Z</time>
      </trkpt>
      <trkpt lat="43.45066" lon="6.3808">
        <ele>200</ele>
        <time>2023-05-31T07:07:48.000Z</time>
      </trkpt>
      <trkpt lat="43.45074" lon="6.38074">
        <ele>199.5</ele>
        <time>2023-05-31T07:07:57.000Z</time>
      </trkpt>
      <trkpt lat="43.45083" lon="6.38068">
        <ele>200.4</ele>
        <time>2023-05-31T07:08:05.000Z</time>
      </trkpt>
      <trkpt lat="43.45092" lon="6.38067">
        <ele>200.2</ele>
        <time>2023-05-31T07:08:12.000Z</time>
      </trkpt>
      <trkpt lat="43.45101" lon="6.38061">
        <ele>200.8</ele>
        <time>2023-05-31T07:08:21.000Z</time>
      </trkpt>
      <trkpt lat="43.45109" lon="6.38054">
        <ele>201.4</ele>
        <time>2023-05-31T07:08:30.000Z</time>
      </trkpt>
      <trkpt lat="43.45117" lon="6.38046">
        <ele>200.8</ele>
        <time>2023-05-31T07:08:38.000Z</time>
      </trkpt>
      <trkpt lat="43.45127" lon="6.38042">
        <ele>201.5</ele>
        <time>2023-05-31T07:08:46.000Z</time>
      </trkpt>
      <trkpt lat="43.45136" lon="6.38039">
        <ele>201.4</ele>
        <time>2023-05-31T07:08:53.000Z</time>
      </trkpt>
      <trkpt lat="43.45145" lon="6.38037">
        <ele>201.8</ele>
        <time>2023-05-31T07:08:58.000Z</time>
      </trkpt>
      <trkpt lat="43.45154" lon="6.38034">
        <ele>201.9</ele>
        <time>2023-05-31T07:09:06.000Z</time>
      </trkpt>
      <trkpt lat="43.45163" lon="6.38028">
        <ele>202.1</ele>
        <time>2023-05-31T07:09:13.000Z</time>
      </trkpt>
      <trkpt lat="43.45171" lon="6.38024">
        <ele>203.2</ele>
        <time>2023-05-31T07:09:20.000Z</time>
      </trkpt>
      <trkpt lat="43.4518" lon="6.38019">
        <ele>203.6</ele>
        <time>2023-05-31T07:09:29.000Z</time>
      </trkpt>
      <trkpt lat="43.45189" lon="6.38013">
        <ele>204.5</ele>
        <time>2023-05-31T07:09:36.000Z</time>
      </trkpt>
      <trkpt lat="43.45198" lon="6.38008">
        <ele>203.7</ele>
        <time>2023-05-31T07:09:44.000Z</time>
      </trkpt>
      <trkpt lat="43.45206" lon="6.38001">
        <ele>204.2</ele>
        <time>2023-05-31T07:09:51.000Z</time>
      </trkpt>
      <trkpt lat="43.45216" lon="6.37996">
        <ele>203.2</ele>
        <time>2023-05-31T07:09:59.000Z</time>
      </trkpt>
      <trkpt lat="43.45225" lon="6.37992">
        <ele>203.9</ele>
        <time>2023-05-31T07:10:05.000Z</time>
      </trkpt>
      <trkpt lat="43.45234" lon="6.37987">
        <ele>203.5</ele>
        <time>2023-05-31T07:10:14.000Z</time>
      </trkpt>
      <trkpt lat="43.45243" lon="6.37981">
        <ele>203.5</ele>
        <time>2023-05-31T07:10:23.000Z</time>
      </trkpt>
      <trkpt lat="43.45251" lon="6.37976">
        <ele>203.8</ele>
        <time>2023-05-31T07:10:30.000Z</time>
      </trkpt>
      <trkpt lat="43.45259" lon="6.37971">
        <ele>204.6</ele>
        <time>2023-05-31T07:10:37.000Z</time>
      </trkpt>
      <trkpt lat="43.45269" lon="6.37967">
        <ele>204.8</ele>
        <time>2023-05-31T07:10:45.000Z</time>
      </trkpt>
      <trkpt lat="43.45277" lon="6.3796">
        <ele>203.4</ele>
        <time>2023-05-31T07:10:53.000Z</time>
      </trkpt>
      <trkpt lat="43.45286" lon="6.37954">
        <ele>203.7</ele>
        <time>2023-05-31T07:11:01.000Z</time>
      </trkpt>
      <trkpt lat="43.45296" lon="6.3795">
        <ele>202.2</ele>
        <time>2023-05-31T07:11:09.000Z</time>
      </trkpt>
      <trkpt lat="43.45305" lon="6.37944">
        <ele>203</ele>
        <time>2023-05-31T07:11:16.000Z</time>
      </trkpt>
      <trkpt lat="43.45314" lon="6.3794">
        <ele>201.9</ele>
        <time>2023-05-31T07:11:24.000Z</time>
      </trkpt>
      <trkpt lat="43.45323" lon="6.37935">
        <ele>202.3</ele>
        <time>2023-05-31T07:11:31.000Z</time>
      </trkpt>
      <trkpt lat="43.45331" lon="6.3793">
        <ele>201.7</ele>
        <time>2023-05-31T07:11:39.000Z</time>
      </trkpt>
      <trkpt lat="43.45339" lon="6.37923">
        <ele>202.3</ele>
        <time>2023-05-31T07:11:47.000Z</time>
      </trkpt>
      <trkpt lat="43.45349" lon="6.37916">
        <ele>202.6</ele>
        <time>2023-05-31T07:11:56.000Z</time>
      </trkpt>
      <trkpt lat="43.45357" lon="6.37912">
        <ele>202.3</ele>
        <time>2023-05-31T07:12:04.000Z</time>
      </trkpt>
      <trkpt lat="43.45366" lon="6.37908">
        <ele>202.5</ele>
        <time>2023-05-31T07:12:10.000Z</time>
      </trkpt>
      <trkpt lat="43.45376" lon="6.37906">
        <ele>202.1</ele>
        <time>2023-05-31T07:12:17.000Z</time>
      </trkpt>
      <trkpt lat="43.45384" lon="6.37899">
        <ele>202.7</ele>
        <time>2023-05-31T07:12:24.000Z</time>
      </trkpt>
      <trkpt lat="43.45393" lon="6.37896">
        <ele>203.5</ele>
        <time>2023-05-31T07:12:34.000Z</time>
      </trkpt>
      <trkpt lat="43.45402" lon="6.37888">
        <ele>204.1</ele>
        <time>2023-05-31T07:12:44.000Z</time>
      </trkpt>
      <trkpt lat="43.45411" lon="6.37886">
        <ele>204.3</ele>
        <time>2023-05-31T07:12:53.000Z</time>
      </trkpt>
      <trkpt lat="43.45418" lon="6.37878">
        <ele>205.2</ele>
        <time>2023-05-31T07:13:03.000Z</time>
      </trkpt>
      <trkpt lat="43.45427" lon="6.37871">
        <ele>206</ele>
        <time>2023-05-31T07:13:12.000Z</time>
      </trkpt>
      <trkpt lat="43.45436" lon="6.37868">
        <ele>206.5</ele>
        <time>2023-05-31T07:13:20.000Z</time>
      </trkpt>
      <trkpt lat="43.4544" lon="6.37868">
        <ele>207.1</ele>
        <time>2023-05-31T07:13:27.000Z</time>
      </trkpt>
      <trkpt lat="43.45449" lon="6.37868">
        <ele>206.8</ele>
        <time>2023-05-31T07:13:38.000Z</time>
      </trkpt>
      <trkpt lat="43.45458" lon="6.37866">
        <ele>207.3</ele>
        <time>2023-05-31T07:13:43.000Z</time>
      </trkpt>
      <trkpt lat="43.45468" lon="6.3786">
        <ele>207.2</ele>
        <time>2023-05-31T07:13:51.000Z</time>
      </trkpt>
      <trkpt lat="43.45477" lon="6.37854">
        <ele>207.6</ele>
        <time>2023-05-31T07:14:00.000Z</time>
      </trkpt>
      <trkpt lat="43.45487" lon="6.37851">
        <ele>207.6</ele>
        <time>2023-05-31T07:14:06.000Z</time>
      </trkpt>
      <trkpt lat="43.45496" lon="6.3785">
        <ele>207.7</ele>
        <time>2023-05-31T07:14:12.000Z</time>
      </trkpt>
      <trkpt lat="43.45505" lon="6.37846">
        <ele>207.8</ele>
        <time>2023-05-31T07:14:19.000Z</time>
      </trkpt>
      <trkpt lat="43.45515" lon="6.37838">
        <ele>208.4</ele>
        <time>2023-05-31T07:14:24.000Z</time>
      </trkpt>
      <trkpt lat="43.45524" lon="6.37836">
        <ele>208.5</ele>
        <time>2023-05-31T07:14:33.000Z</time>
      </trkpt>
      <trkpt lat="43.45533" lon="6.37832">
        <ele>209.1</ele>
        <time>2023-05-31T07:14:42.000Z</time>
      </trkpt>
      <trkpt lat="43.45543" lon="6.37832">
        <ele>207.5</ele>
        <time>2023-05-31T07:14:48.000Z</time>
      </trkpt>
      <trkpt lat="43.45552" lon="6.37828">
        <ele>208</ele>
        <time>2023-05-31T07:14:55.000Z</time>
      </trkpt>
      <trkpt lat="43.45559" lon="6.37821">
        <ele>207.1</ele>
        <time>2023-05-31T07:15:02.000Z</time>
      </trkpt>
      <trkpt lat="43.45569" lon="6.37818">
        <ele>207.8</ele>
        <time>2023-05-31T07:15:11.000Z</time>
      </trkpt>
      <trkpt lat="43.45578" lon="6.37811">
        <ele>207</ele>
        <time>2023-05-31T07:15:18.000Z</time>
      </trkpt>
      <trkpt lat="43.45587" lon="6.37806">
        <ele>207.3</ele>
        <time>2023-05-31T07:15:25.000Z</time>
      </trkpt>
      <trkpt lat="43.45595" lon="6.378">
        <ele>207.6</ele>
        <time>2023-05-31T07:15:32.000Z</time>
      </trkpt>
      <trkpt lat="43.45603" lon="6.37793">
        <ele>207.1</ele>
        <time>2023-05-31T07:15:39.000Z</time>
      </trkpt>
      <trkpt lat="43.4561" lon="6.37787">
        <ele>207.7</ele>
        <time>2023-05-31T07:15:46.000Z</time>
      </trkpt>
      <trkpt lat="43.45619" lon="6.37781">
        <ele>207.3</ele>
        <time>2023-05-31T07:15:53.000Z</time>
      </trkpt>
      <trkpt lat="43.45628" lon="6.37777">
        <ele>206.7</ele>
        <time>2023-05-31T07:16:02.000Z</time>
      </trkpt>
      <trkpt lat="43.45637" lon="6.37777">
        <ele>206.2</ele>
        <time>2023-05-31T07:16:10.000Z</time>
      </trkpt>
      <trkpt lat="43.45647" lon="6.37773">
        <ele>206.1</ele>
        <time>2023-05-31T07:16:18.000Z</time>
      </trkpt>
      <trkpt lat="43.45655" lon="6.37765">
        <ele>205.1</ele>
        <time>2023-05-31T07:16:28.000Z</time>
      </trkpt>
      <trkpt lat="43.45664" lon="6.37762">
        <ele>204.2</ele>
        <time>2023-05-31T07:16:36.000Z</time>
      </trkpt>
      <trkpt lat="43.45673" lon="6.3776">
        <ele>204.2</ele>
        <time>2023-05-31T07:16:45.000Z</time>
      </trkpt>
      <trkpt lat="43.45682" lon="6.37759">
        <ele>204.4</ele>
        <time>2023-05-31T07:16:52.000Z</time>
      </trkpt>
      <trkpt lat="43.45693" lon="6.37758">
        <ele>203.5</ele>
        <time>2023-05-31T07:17:00.000Z</time>
      </trkpt>
      <trkpt lat="43.45702" lon="6.37751">
        <ele>203.5</ele>
        <time>2023-05-31T07:17:09.000Z</time>
      </trkpt>
      <trkpt lat="43.45711" lon="6.37748">
        <ele>203.1</ele>
        <time>2023-05-31T07:17:17.000Z</time>
      </trkpt>
      <trkpt lat="43.4572" lon="6.37747">
        <ele>202.5</ele>
        <time>2023-05-31T07:17:25.000Z</time>
      </trkpt>
      <trkpt lat="43.4573" lon="6.37745">
        <ele>202.2</ele>
        <time>2023-05-31T07:17:33.000Z</time>
      </trkpt>
      <trkpt lat="43.4574" lon="6.3774">
        <ele>202.2</ele>
        <time>2023-05-31T07:17:41.000Z</time>
      </trkpt>
      <trkpt lat="43.45748" lon="6.37737">
        <ele>202.2</ele>
        <time>2023-05-31T07:17:54.000Z</time>
      </trkpt>
      <trkpt lat="43.45747" lon="6.37739">
        <ele>202</ele>
        <time>2023-05-31T07:19:09.000Z</time>
      </trkpt>
      <trkpt lat="43.45755" lon="6.37733">
        <ele>203</ele>
        <time>2023-05-31T07:19:35.000Z</time>
      </trkpt>
      <trkpt lat="43.45764" lon="6.37734">
        <ele>203.1</ele>
        <time>2023-05-31T07:19:40.000Z</time>
      </trkpt>
      <trkpt lat="43.45774" lon="6.37736">
        <ele>203.1</ele>
        <time>2023-05-31T07:19:47.000Z</time>
      </trkpt>
      <trkpt lat="43.45785" lon="6.37737">
        <ele>203.1</ele>
        <time>2023-05-31T07:19:54.000Z</time>
      </trkpt>
      <trkpt lat="43.45794" lon="6.37734">
        <ele>202.5</ele>
        <time>2023-05-31T07:20:03.000Z</time>
      </trkpt>
      <trkpt lat="43.45804" lon="6.37732">
        <ele>203.7</ele>
        <time>2023-05-31T07:20:15.000Z</time>
      </trkpt>
      <trkpt lat="43.45813" lon="6.37726">
        <ele>202.9</ele>
        <time>2023-05-31T07:20:21.000Z</time>
      </trkpt>
      <trkpt lat="43.45823" lon="6.37725">
        <ele>201.8</ele>
        <time>2023-05-31T07:20:26.000Z</time>
      </trkpt>
      <trkpt lat="43.45832" lon="6.37725">
        <ele>200.9</ele>
        <time>2023-05-31T07:20:34.000Z</time>
      </trkpt>
      <trkpt lat="43.45841" lon="6.37722">
        <ele>201.9</ele>
        <time>2023-05-31T07:20:42.000Z</time>
      </trkpt>
      <trkpt lat="43.45848" lon="6.37716">
        <ele>201.1</ele>
        <time>2023-05-31T07:20:57.000Z</time>
      </trkpt>
      <trkpt lat="43.45858" lon="6.37716">
        <ele>200.5</ele>
        <time>2023-05-31T07:21:07.000Z</time>
      </trkpt>
      <trkpt lat="43.45866" lon="6.37708">
        <ele>201.7</ele>
        <time>2023-05-31T07:21:27.000Z</time>
      </trkpt>
      <trkpt lat="43.45875" lon="6.37706">
        <ele>201.1</ele>
        <time>2023-05-31T07:21:35.000Z</time>
      </trkpt>
      <trkpt lat="43.45876" lon="6.37703">
        <ele>201.3</ele>
        <time>2023-05-31T07:21:44.000Z</time>
      </trkpt>
      <trkpt lat="43.45885" lon="6.377">
        <ele>201.3</ele>
        <time>2023-05-31T07:22:09.000Z</time>
      </trkpt>
      <trkpt lat="43.45895" lon="6.37696">
        <ele>200.9</ele>
        <time>2023-05-31T07:22:17.000Z</time>
      </trkpt>
      <trkpt lat="43.45903" lon="6.37691">
        <ele>200.7</ele>
        <time>2023-05-31T07:22:25.000Z</time>
      </trkpt>
      <trkpt lat="43.45909" lon="6.37681">
        <ele>200.8</ele>
        <time>2023-05-31T07:22:35.000Z</time>
      </trkpt>
      <trkpt lat="43.45916" lon="6.37673">
        <ele>200.1</ele>
        <time>2023-05-31T07:22:44.000Z</time>
      </trkpt>
      <trkpt lat="43.45924" lon="6.37667">
        <ele>199.7</ele>
        <time>2023-05-31T07:22:53.000Z</time>
      </trkpt>
      <trkpt lat="43.45933" lon="6.3766">
        <ele>200.3</ele>
        <time>2023-05-31T07:22:59.000Z</time>
      </trkpt>
      <trkpt lat="43.45944" lon="6.3766">
        <ele>200.2</ele>
        <time>2023-05-31T07:23:06.000Z</time>
      </trkpt>
      <trkpt lat="43.45954" lon="6.37658">
        <ele>200</ele>
        <time>2023-05-31T07:23:12.000Z</time>
      </trkpt>
      <trkpt lat="43.45963" lon="6.37658">
        <ele>200.1</ele>
        <time>2023-05-31T07:23:21.000Z</time>
      </trkpt>
      <trkpt lat="43.45972" lon="6.37655">
        <ele>199.4</ele>
        <time>2023-05-31T07:23:28.000Z</time>
      </trkpt>
      <trkpt lat="43.45981" lon="6.37649">
        <ele>198.8</ele>
        <time>2023-05-31T07:23:36.000Z</time>
      </trkpt>
      <trkpt lat="43.4599" lon="6.37649">
        <ele>199.1</ele>
        <time>2023-05-31T07:23:44.000Z</time>
      </trkpt>
      <trkpt lat="43.46" lon="6.37645">
        <ele>199.8</ele>
        <time>2023-05-31T07:23:53.000Z</time>
      </trkpt>
      <trkpt lat="43.46009" lon="6.37643">
        <ele>200.4</ele>
        <time>2023-05-31T07:24:01.000Z</time>
      </trkpt>
      <trkpt lat="43.46018" lon="6.37641">
        <ele>200.9</ele>
        <time>2023-05-31T07:24:08.000Z</time>
      </trkpt>
      <trkpt lat="43.46027" lon="6.37642">
        <ele>201.5</ele>
        <time>2023-05-31T07:24:20.000Z</time>
      </trkpt>
      <trkpt lat="43.46036" lon="6.3764">
        <ele>202</ele>
        <time>2023-05-31T07:24:28.000Z</time>
      </trkpt>
      <trkpt lat="43.46045" lon="6.37635">
        <ele>201.3</ele>
        <time>2023-05-31T07:24:35.000Z</time>
      </trkpt>
      <trkpt lat="43.46055" lon="6.37633">
        <ele>201.9</ele>
        <time>2023-05-31T07:24:41.000Z</time>
      </trkpt>
      <trkpt lat="43.46064" lon="6.37631">
        <ele>201.2</ele>
        <time>2023-05-31T07:24:46.000Z</time>
      </trkpt>
      <trkpt lat="43.46073" lon="6.37623">
        <ele>200.9</ele>
        <time>2023-05-31T07:24:55.000Z</time>
      </trkpt>
      <trkpt lat="43.4608" lon="6.37617">
        <ele>201.3</ele>
        <time>2023-05-31T07:25:02.000Z</time>
      </trkpt>
      <trkpt lat="43.46089" lon="6.37612">
        <ele>200.9</ele>
        <time>2023-05-31T07:25:10.000Z</time>
      </trkpt>
      <trkpt lat="43.46099" lon="6.37606">
        <ele>200.7</ele>
        <time>2023-05-31T07:25:20.000Z</time>
      </trkpt>
      <trkpt lat="43.46108" lon="6.37601">
        <ele>200.9</ele>
        <time>2023-05-31T07:25:28.000Z</time>
      </trkpt>
      <trkpt lat="43.46116" lon="6.37594">
        <ele>201</ele>
        <time>2023-05-31T07:25:36.000Z</time>
      </trkpt>
      <trkpt lat="43.46123" lon="6.37586">
        <ele>200.6</ele>
        <time>2023-05-31T07:25:44.000Z</time>
      </trkpt>
      <trkpt lat="43.46132" lon="6.37583">
        <ele>201.1</ele>
        <time>2023-05-31T07:25:51.000Z</time>
      </trkpt>
      <trkpt lat="43.46142" lon="6.37578">
        <ele>201.2</ele>
        <time>2023-05-31T07:26:01.000Z</time>
      </trkpt>
      <trkpt lat="43.46151" lon="6.37573">
        <ele>201.2</ele>
        <time>2023-05-31T07:26:08.000Z</time>
      </trkpt>
      <trkpt lat="43.4616" lon="6.37571">
        <ele>200.6</ele>
        <time>2023-05-31T07:26:16.000Z</time>
      </trkpt>
      <trkpt lat="43.46168" lon="6.37563">
        <ele>201.2</ele>
        <time>2023-05-31T07:26:24.000Z</time>
      </trkpt>
      <trkpt lat="43.46176" lon="6.37555">
        <ele>201.5</ele>
        <time>2023-05-31T07:26:31.000Z</time>
      </trkpt>
      <trkpt lat="43.46186" lon="6.37551">
        <ele>201.2</ele>
        <time>2023-05-31T07:26:37.000Z</time>
      </trkpt>
      <trkpt lat="43.46195" lon="6.37542">
        <ele>202</ele>
        <time>2023-05-31T07:26:43.000Z</time>
      </trkpt>
      <trkpt lat="43.46202" lon="6.37534">
        <ele>202.3</ele>
        <time>2023-05-31T07:26:49.000Z</time>
      </trkpt>
      <trkpt lat="43.46206" lon="6.37522">
        <ele>202.6</ele>
        <time>2023-05-31T07:26:55.000Z</time>
      </trkpt>
      <trkpt lat="43.46202" lon="6.37509">
        <ele>202.5</ele>
        <time>2023-05-31T07:27:01.000Z</time>
      </trkpt>
      <trkpt lat="43.46196" lon="6.37499">
        <ele>202.8</ele>
        <time>2023-05-31T07:27:09.000Z</time>
      </trkpt>
      <trkpt lat="43.46189" lon="6.37488">
        <ele>203.7</ele>
        <time>2023-05-31T07:27:18.000Z</time>
      </trkpt>
      <trkpt lat="43.46183" lon="6.37476">
        <ele>202.8</ele>
        <time>2023-05-31T07:27:27.000Z</time>
      </trkpt>
      <trkpt lat="43.46179" lon="6.37464">
        <ele>202.6</ele>
        <time>2023-05-31T07:27:33.000Z</time>
      </trkpt>
      <trkpt lat="43.46171" lon="6.37455">
        <ele>201.7</ele>
        <time>2023-05-31T07:27:40.000Z</time>
      </trkpt>
      <trkpt lat="43.46166" lon="6.37444">
        <ele>200.6</ele>
        <time>2023-05-31T07:27:49.000Z</time>
      </trkpt>
      <trkpt lat="43.46159" lon="6.37436">
        <ele>199.7</ele>
        <time>2023-05-31T07:27:57.000Z</time>
      </trkpt>
      <trkpt lat="43.46155" lon="6.37425">
        <ele>198.2</ele>
        <time>2023-05-31T07:28:06.000Z</time>
      </trkpt>
      <trkpt lat="43.46155" lon="6.37412">
        <ele>197</ele>
        <time>2023-05-31T07:28:16.000Z</time>
      </trkpt>
      <trkpt lat="43.46152" lon="6.374">
        <ele>196.7</ele>
        <time>2023-05-31T07:28:27.000Z</time>
      </trkpt>
      <trkpt lat="43.46154" lon="6.37387">
        <ele>196.5</ele>
        <time>2023-05-31T07:28:36.000Z</time>
      </trkpt>
      <trkpt lat="43.46155" lon="6.37374">
        <ele>196.1</ele>
        <time>2023-05-31T07:28:44.000Z</time>
      </trkpt>
      <trkpt lat="43.46154" lon="6.37361">
        <ele>195.7</ele>
        <time>2023-05-31T07:28:52.000Z</time>
      </trkpt>
      <trkpt lat="43.46159" lon="6.3735">
        <ele>196.2</ele>
        <time>2023-05-31T07:29:04.000Z</time>
      </trkpt>
      <trkpt lat="43.46161" lon="6.37338">
        <ele>196.1</ele>
        <time>2023-05-31T07:29:13.000Z</time>
      </trkpt>
      <trkpt lat="43.46162" lon="6.37325">
        <ele>195.4</ele>
        <time>2023-05-31T07:29:22.000Z</time>
      </trkpt>
      <trkpt lat="43.46158" lon="6.37314">
        <ele>195.7</ele>
        <time>2023-05-31T07:29:29.000Z</time>
      </trkpt>
      <trkpt lat="43.46156" lon="6.37309">
        <ele>196.6</ele>
        <time>2023-05-31T07:29:39.000Z</time>
      </trkpt>
      <trkpt lat="43.46158" lon="6.37295">
        <ele>196.5</ele>
        <time>2023-05-31T07:29:50.000Z</time>
      </trkpt>
      <trkpt lat="43.46158" lon="6.37282">
        <ele>197.2</ele>
        <time>2023-05-31T07:30:08.000Z</time>
      </trkpt>
      <trkpt lat="43.46156" lon="6.3727">
        <ele>197</ele>
        <time>2023-05-31T07:30:22.000Z</time>
      </trkpt>
      <trkpt lat="43.46149" lon="6.37261">
        <ele>196.1</ele>
        <time>2023-05-31T07:30:32.000Z</time>
      </trkpt>
      <trkpt lat="43.46141" lon="6.37254">
        <ele>194.6</ele>
        <time>2023-05-31T07:30:47.000Z</time>
      </trkpt>
      <trkpt lat="43.46132" lon="6.37249">
        <ele>193.6</ele>
        <time>2023-05-31T07:30:53.000Z</time>
      </trkpt>
      <trkpt lat="43.46125" lon="6.37241">
        <ele>193.9</ele>
        <time>2023-05-31T07:31:00.000Z</time>
      </trkpt>
      <trkpt lat="43.4612" lon="6.3723">
        <ele>193.1</ele>
        <time>2023-05-31T07:31:07.000Z</time>
      </trkpt>
      <trkpt lat="43.46115" lon="6.37221">
        <ele>191.6</ele>
        <time>2023-05-31T07:31:19.000Z</time>
      </trkpt>
      <trkpt lat="43.4611" lon="6.3721">
        <ele>191.5</ele>
        <time>2023-05-31T07:31:34.000Z</time>
      </trkpt>
      <trkpt lat="43.46103" lon="6.37201">
        <ele>191.2</ele>
        <time>2023-05-31T07:31:46.000Z</time>
      </trkpt>
      <trkpt lat="43.46096" lon="6.37193">
        <ele>191.1</ele>
        <time>2023-05-31T07:31:54.000Z</time>
      </trkpt>
      <trkpt lat="43.46087" lon="6.37189">
        <ele>190.6</ele>
        <time>2023-05-31T07:31:59.000Z</time>
      </trkpt>
      <trkpt lat="43.46078" lon="6.37184">
        <ele>188.6</ele>
        <time>2023-05-31T07:32:09.000Z</time>
      </trkpt>
      <trkpt lat="43.4607" lon="6.37179">
        <ele>186.2</ele>
        <time>2023-05-31T07:32:25.000Z</time>
      </trkpt>
      <trkpt lat="43.46064" lon="6.37169">
        <ele>183.9</ele>
        <time>2023-05-31T07:32:39.000Z</time>
      </trkpt>
      <trkpt lat="43.46057" lon="6.37158">
        <ele>182.1</ele>
        <time>2023-05-31T07:32:46.000Z</time>
      </trkpt>
      <trkpt lat="43.4605" lon="6.37151">
        <ele>180.4</ele>
        <time>2023-05-31T07:32:52.000Z</time>
      </trkpt>
      <trkpt lat="43.46044" lon="6.3714">
        <ele>177.3</ele>
        <time>2023-05-31T07:33:05.000Z</time>
      </trkpt>
      <trkpt lat="43.4604" lon="6.37127">
        <ele>175.4</ele>
        <time>2023-05-31T07:33:16.000Z</time>
      </trkpt>
      <trkpt lat="43.46033" lon="6.37116">
        <ele>173.6</ele>
        <time>2023-05-31T07:33:24.000Z</time>
      </trkpt>
      <trkpt lat="43.46026" lon="6.3711">
        <ele>172</ele>
        <time>2023-05-31T07:33:33.000Z</time>
      </trkpt>
      <trkpt lat="43.46019" lon="6.37101">
        <ele>171.3</ele>
        <time>2023-05-31T07:33:44.000Z</time>
      </trkpt>
      <trkpt lat="43.46009" lon="6.37093">
        <ele>170.7</ele>
        <time>2023-05-31T07:33:49.000Z</time>
      </trkpt>
      <trkpt lat="43.46005" lon="6.37081">
        <ele>168.8</ele>
        <time>2023-05-31T07:34:02.000Z</time>
      </trkpt>
      <trkpt lat="43.45999" lon="6.37068">
        <ele>167.9</ele>
        <time>2023-05-31T07:34:05.000Z</time>
      </trkpt>
      <trkpt lat="43.45991" lon="6.37053">
        <ele>167.7</ele>
        <time>2023-05-31T07:34:08.000Z</time>
      </trkpt>
      <trkpt lat="43.45984" lon="6.37043">
        <ele>167</ele>
        <time>2023-05-31T07:34:15.000Z</time>
      </trkpt>
      <trkpt lat="43.45976" lon="6.37036">
        <ele>166.2</ele>
        <time>2023-05-31T07:34:20.000Z</time>
      </trkpt>
      <trkpt lat="43.45979" lon="6.3705">
        <ele>165.6</ele>
        <time>2023-05-31T07:34:27.000Z</time>
      </trkpt>
      <trkpt lat="43.45978" lon="6.37049">
        <ele>165.7</ele>
        <time>2023-05-31T07:34:32.000Z</time>
      </trkpt>
      <trkpt lat="43.45969" lon="6.37046">
        <ele>163.7</ele>
        <time>2023-05-31T07:34:41.000Z</time>
      </trkpt>
      <trkpt lat="43.4596" lon="6.37052">
        <ele>162.6</ele>
        <time>2023-05-31T07:34:50.000Z</time>
      </trkpt>
      <trkpt lat="43.45951" lon="6.37054">
        <ele>161.1</ele>
        <time>2023-05-31T07:35:02.000Z</time>
      </trkpt>
      <trkpt lat="43.45942" lon="6.37057">
        <ele>159.4</ele>
        <time>2023-05-31T07:35:10.000Z</time>
      </trkpt>
      <trkpt lat="43.45933" lon="6.3706">
        <ele>158.6</ele>
        <time>2023-05-31T07:35:19.000Z</time>
      </trkpt>
      <trkpt lat="43.45924" lon="6.37064">
        <ele>156.6</ele>
        <time>2023-05-31T07:35:25.000Z</time>
      </trkpt>
      <trkpt lat="43.45915" lon="6.37069">
        <ele>156</ele>
        <time>2023-05-31T07:35:34.000Z</time>
      </trkpt>
      <trkpt lat="43.45906" lon="6.37072">
        <ele>155.1</ele>
        <time>2023-05-31T07:35:45.000Z</time>
      </trkpt>
      <trkpt lat="43.45898" lon="6.37079">
        <ele>155</ele>
        <time>2023-05-31T07:35:59.000Z</time>
      </trkpt>
      <trkpt lat="43.45889" lon="6.37077">
        <ele>154</ele>
        <time>2023-05-31T07:36:05.000Z</time>
      </trkpt>
      <trkpt lat="43.4588" lon="6.37076">
        <ele>153.9</ele>
        <time>2023-05-31T07:36:15.000Z</time>
      </trkpt>
      <trkpt lat="43.45889" lon="6.37078">
        <ele>152.4</ele>
        <time>2023-05-31T07:36:36.000Z</time>
      </trkpt>
      <trkpt lat="43.45896" lon="6.3707">
        <ele>151.6</ele>
        <time>2023-05-31T07:36:46.000Z</time>
      </trkpt>
      <trkpt lat="43.45887" lon="6.37062">
        <ele>151.2</ele>
        <time>2023-05-31T07:36:50.000Z</time>
      </trkpt>
      <trkpt lat="43.45882" lon="6.37048">
        <ele>150.9</ele>
        <time>2023-05-31T07:36:56.000Z</time>
      </trkpt>
      <trkpt lat="43.45881" lon="6.37034">
        <ele>150.5</ele>
        <time>2023-05-31T07:37:02.000Z</time>
      </trkpt>
      <trkpt lat="43.45879" lon="6.37021">
        <ele>149.9</ele>
        <time>2023-05-31T07:37:09.000Z</time>
      </trkpt>
      <trkpt lat="43.45879" lon="6.37008">
        <ele>150</ele>
        <time>2023-05-31T07:37:20.000Z</time>
      </trkpt>
      <trkpt lat="43.45845" lon="6.36982">
        <ele>148</ele>
        <time>2023-05-31T07:37:30.000Z</time>
      </trkpt>
      <trkpt lat="43.4584" lon="6.3697">
        <ele>148.5</ele>
        <time>2023-05-31T07:37:35.000Z</time>
      </trkpt>
      <trkpt lat="43.45847" lon="6.36963">
        <ele>147.7</ele>
        <time>2023-05-31T07:37:42.000Z</time>
      </trkpt>
      <trkpt lat="43.45857" lon="6.36959">
        <ele>147.1</ele>
        <time>2023-05-31T07:37:48.000Z</time>
      </trkpt>
      <trkpt lat="43.45866" lon="6.36962">
        <ele>147</ele>
        <time>2023-05-31T07:37:51.000Z</time>
      </trkpt>
      <trkpt lat="43.45877" lon="6.36964">
        <ele>147.4</ele>
        <time>2023-05-31T07:37:56.000Z</time>
      </trkpt>
      <trkpt lat="43.45884" lon="6.36957">
        <ele>146</ele>
        <time>2023-05-31T07:38:02.000Z</time>
      </trkpt>
      <trkpt lat="43.45881" lon="6.36945">
        <ele>145.6</ele>
        <time>2023-05-31T07:38:12.000Z</time>
      </trkpt>
      <trkpt lat="43.45893" lon="6.36937">
        <ele>144.6</ele>
        <time>2023-05-31T07:38:22.000Z</time>
      </trkpt>
      <trkpt lat="43.45899" lon="6.36928">
        <ele>144.4</ele>
        <time>2023-05-31T07:38:26.000Z</time>
      </trkpt>
      <trkpt lat="43.45904" lon="6.36917">
        <ele>144.8</ele>
        <time>2023-05-31T07:38:37.000Z</time>
      </trkpt>
      <trkpt lat="43.45898" lon="6.36905">
        <ele>144</ele>
        <time>2023-05-31T07:38:42.000Z</time>
      </trkpt>
      <trkpt lat="43.4589" lon="6.36893">
        <ele>144</ele>
        <time>2023-05-31T07:38:46.000Z</time>
      </trkpt>
      <trkpt lat="43.45886" lon="6.3688">
        <ele>143</ele>
        <time>2023-05-31T07:38:51.000Z</time>
      </trkpt>
      <trkpt lat="43.45881" lon="6.36869">
        <ele>142.7</ele>
        <time>2023-05-31T07:38:55.000Z</time>
      </trkpt>
      <trkpt lat="43.45882" lon="6.36856">
        <ele>141.8</ele>
        <time>2023-05-31T07:39:06.000Z</time>
      </trkpt>
      <trkpt lat="43.45889" lon="6.36846">
        <ele>140.8</ele>
        <time>2023-05-31T07:39:16.000Z</time>
      </trkpt>
      <trkpt lat="43.45887" lon="6.36834">
        <ele>140.6</ele>
        <time>2023-05-31T07:39:21.000Z</time>
      </trkpt>
      <trkpt lat="43.45897" lon="6.36831">
        <ele>140.9</ele>
        <time>2023-05-31T07:39:30.000Z</time>
      </trkpt>
      <trkpt lat="43.45901" lon="6.3682">
        <ele>140.6</ele>
        <time>2023-05-31T07:39:49.000Z</time>
      </trkpt>
      <trkpt lat="43.459" lon="6.368">
        <ele>140.7</ele>
        <time>2023-05-31T07:39:59.000Z</time>
      </trkpt>
      <trkpt lat="43.4589" lon="6.36795">
        <ele>139.5</ele>
        <time>2023-05-31T07:40:14.000Z</time>
      </trkpt>
      <trkpt lat="43.45892" lon="6.36808">
        <ele>139.8</ele>
        <time>2023-05-31T07:40:26.000Z</time>
      </trkpt>
      <trkpt lat="43.45894" lon="6.36803">
        <ele>139.7</ele>
        <time>2023-05-31T07:40:41.000Z</time>
      </trkpt>
      <trkpt lat="43.45901" lon="6.36796">
        <ele>139.3</ele>
        <time>2023-05-31T07:41:02.000Z</time>
      </trkpt>
      <trkpt lat="43.45894" lon="6.36788">
        <ele>139.3</ele>
        <time>2023-05-31T07:41:08.000Z</time>
      </trkpt>
      <trkpt lat="43.45885" lon="6.3679">
        <ele>139.3</ele>
        <time>2023-05-31T07:41:15.000Z</time>
      </trkpt>
      <trkpt lat="43.45881" lon="6.3679">
        <ele>139.2</ele>
        <time>2023-05-31T07:41:22.000Z</time>
      </trkpt>
      <trkpt lat="43.45876" lon="6.36788">
        <ele>139.2</ele>
        <time>2023-05-31T07:41:31.000Z</time>
      </trkpt>
      <trkpt lat="43.45885" lon="6.36785">
        <ele>139.4</ele>
        <time>2023-05-31T07:41:47.000Z</time>
      </trkpt>
      <trkpt lat="43.45893" lon="6.36791">
        <ele>139.2</ele>
        <time>2023-05-31T07:42:00.000Z</time>
      </trkpt>
      <trkpt lat="43.45901" lon="6.36798">
        <ele>140.2</ele>
        <time>2023-05-31T07:42:05.000Z</time>
      </trkpt>
      <trkpt lat="43.45911" lon="6.36793">
        <ele>138.9</ele>
        <time>2023-05-31T07:42:13.000Z</time>
      </trkpt>
      <trkpt lat="43.45907" lon="6.36781">
        <ele>137.4</ele>
        <time>2023-05-31T07:42:20.000Z</time>
      </trkpt>
      <trkpt lat="43.45908" lon="6.36768">
        <ele>136.3</ele>
        <time>2023-05-31T07:42:42.000Z</time>
      </trkpt>
      <trkpt lat="43.45906" lon="6.36755">
        <ele>136.1</ele>
        <time>2023-05-31T07:42:48.000Z</time>
      </trkpt>
      <trkpt lat="43.45898" lon="6.36742">
        <ele>135.4</ele>
        <time>2023-05-31T07:42:52.000Z</time>
      </trkpt>
      <trkpt lat="43.45895" lon="6.3673">
        <ele>133.7</ele>
        <time>2023-05-31T07:42:58.000Z</time>
      </trkpt>
      <trkpt lat="43.45892" lon="6.36724">
        <ele>133.3</ele>
        <time>2023-05-31T07:43:06.000Z</time>
      </trkpt>
      <trkpt lat="43.45881" lon="6.36722">
        <ele>133.8</ele>
        <time>2023-05-31T07:43:11.000Z</time>
      </trkpt>
      <trkpt lat="43.45874" lon="6.36713">
        <ele>133.5</ele>
        <time>2023-05-31T07:43:17.000Z</time>
      </trkpt>
      <trkpt lat="43.45876" lon="6.36715">
        <ele>133.3</ele>
        <time>2023-05-31T07:43:35.000Z</time>
      </trkpt>
      <trkpt lat="43.45873" lon="6.36727">
        <ele>133.5</ele>
        <time>2023-05-31T07:43:44.000Z</time>
      </trkpt>
      <trkpt lat="43.45873" lon="6.36726">
        <ele>133.6</ele>
        <time>2023-05-31T07:44:05.000Z</time>
      </trkpt>
      <trkpt lat="43.45875" lon="6.36728">
        <ele>133.6</ele>
        <time>2023-05-31T07:44:15.000Z</time>
      </trkpt>
      <trkpt lat="43.45876" lon="6.36729">
        <ele>133.7</ele>
        <time>2023-05-31T07:44:22.000Z</time>
      </trkpt>
      <trkpt lat="43.45877" lon="6.36716">
        <ele>134.3</ele>
        <time>2023-05-31T07:44:30.000Z</time>
      </trkpt>
      <trkpt lat="43.45886" lon="6.36715">
        <ele>134.6</ele>
        <time>2023-05-31T07:44:44.000Z</time>
      </trkpt>
      <trkpt lat="43.45894" lon="6.36721">
        <ele>134.6</ele>
        <time>2023-05-31T07:44:53.000Z</time>
      </trkpt>
      <trkpt lat="43.45893" lon="6.36721">
        <ele>134.3</ele>
        <time>2023-05-31T07:45:13.000Z</time>
      </trkpt>
      <trkpt lat="43.45884" lon="6.36718">
        <ele>133.7</ele>
        <time>2023-05-31T07:45:22.000Z</time>
      </trkpt>
      <trkpt lat="43.45881" lon="6.36733">
        <ele>134</ele>
        <time>2023-05-31T07:45:35.000Z</time>
      </trkpt>
      <trkpt lat="43.45879" lon="6.3674">
        <ele>133.9</ele>
        <time>2023-05-31T07:45:46.000Z</time>
      </trkpt>
      <trkpt lat="43.45882" lon="6.36754">
        <ele>134.3</ele>
        <time>2023-05-31T07:46:17.000Z</time>
      </trkpt>
      <trkpt lat="43.45884" lon="6.36767">
        <ele>134.2</ele>
        <time>2023-05-31T07:46:22.000Z</time>
      </trkpt>
      <trkpt lat="43.45888" lon="6.36752">
        <ele>134.5</ele>
        <time>2023-05-31T07:46:31.000Z</time>
      </trkpt>
      <trkpt lat="43.45892" lon="6.36778">
        <ele>134.4</ele>
        <time>2023-05-31T07:46:36.000Z</time>
      </trkpt>
      <trkpt lat="43.45884" lon="6.36772">
        <ele>134</ele>
        <time>2023-05-31T07:46:47.000Z</time>
      </trkpt>
      <trkpt lat="43.45882" lon="6.36757">
        <ele>134.5</ele>
        <time>2023-05-31T07:46:54.000Z</time>
      </trkpt>
      <trkpt lat="43.45879" lon="6.36738">
        <ele>134</ele>
        <time>2023-05-31T07:47:09.000Z</time>
      </trkpt>
      <trkpt lat="43.45884" lon="6.36719">
        <ele>134.3</ele>
        <time>2023-05-31T07:47:12.000Z</time>
      </trkpt>
      <trkpt lat="43.45888" lon="6.36707">
        <ele>133.6</ele>
        <time>2023-05-31T07:47:23.000Z</time>
      </trkpt>
      <trkpt lat="43.45889" lon="6.36708">
        <ele>133.5</ele>
        <time>2023-05-31T07:47:26.000Z</time>
      </trkpt>
      <trkpt lat="43.45888" lon="6.36703">
        <ele>133.4</ele>
        <time>2023-05-31T07:47:34.000Z</time>
      </trkpt>
      <trkpt lat="43.45894" lon="6.36692">
        <ele>134.2</ele>
        <time>2023-05-31T07:48:16.000Z</time>
      </trkpt>
      <trkpt lat="43.45903" lon="6.36688">
        <ele>133.8</ele>
        <time>2023-05-31T07:48:21.000Z</time>
      </trkpt>
      <trkpt lat="43.45912" lon="6.36686">
        <ele>134.2</ele>
        <time>2023-05-31T07:48:30.000Z</time>
      </trkpt>
      <trkpt lat="43.45921" lon="6.36681">
        <ele>132.6</ele>
        <time>2023-05-31T07:48:46.000Z</time>
      </trkpt>
      <trkpt lat="43.45919" lon="6.36671">
        <ele>133.2</ele>
        <time>2023-05-31T07:49:05.000Z</time>
      </trkpt>
      <trkpt lat="43.45924" lon="6.36672">
        <ele>132.8</ele>
        <time>2023-05-31T07:49:15.000Z</time>
      </trkpt>
      <trkpt lat="43.45912" lon="6.36668">
        <ele>132.7</ele>
        <time>2023-05-31T07:49:20.000Z</time>
      </trkpt>
      <trkpt lat="43.45914" lon="6.36667">
        <ele>132</ele>
        <time>2023-05-31T07:49:24.000Z</time>
      </trkpt>
      <trkpt lat="43.4592" lon="6.36682">
        <ele>132.6</ele>
        <time>2023-05-31T07:49:31.000Z</time>
      </trkpt>
      <trkpt lat="43.45915" lon="6.36692">
        <ele>131.6</ele>
        <time>2023-05-31T07:49:49.000Z</time>
      </trkpt>
      <trkpt lat="43.45903" lon="6.36681">
        <ele>129</ele>
        <time>2023-05-31T07:49:54.000Z</time>
      </trkpt>
      <trkpt lat="43.45901" lon="6.36669">
        <ele>129.5</ele>
        <time>2023-05-31T07:49:58.000Z</time>
      </trkpt>
      <trkpt lat="43.45895" lon="6.36658">
        <ele>129.2</ele>
        <time>2023-05-31T07:50:09.000Z</time>
      </trkpt>
      <trkpt lat="43.45889" lon="6.36645">
        <ele>129.3</ele>
        <time>2023-05-31T07:50:11.000Z</time>
      </trkpt>
      <trkpt lat="43.45883" lon="6.36632">
        <ele>129.2</ele>
        <time>2023-05-31T07:50:14.000Z</time>
      </trkpt>
      <trkpt lat="43.45879" lon="6.36621">
        <ele>129.7</ele>
        <time>2023-05-31T07:50:23.000Z</time>
      </trkpt>
      <trkpt lat="43.4587" lon="6.36611">
        <ele>129.2</ele>
        <time>2023-05-31T07:50:32.000Z</time>
      </trkpt>
      <trkpt lat="43.45862" lon="6.36603">
        <ele>129.2</ele>
        <time>2023-05-31T07:50:39.000Z</time>
      </trkpt>
      <trkpt lat="43.45853" lon="6.36594">
        <ele>129.5</ele>
        <time>2023-05-31T07:50:43.000Z</time>
      </trkpt>
      <trkpt lat="43.45844" lon="6.36591">
        <ele>130</ele>
        <time>2023-05-31T07:50:47.000Z</time>
      </trkpt>
      <trkpt lat="43.45837" lon="6.36583">
        <ele>130</ele>
        <time>2023-05-31T07:50:50.000Z</time>
      </trkpt>
      <trkpt lat="43.4583" lon="6.36568">
        <ele>129.9</ele>
        <time>2023-05-31T07:50:53.000Z</time>
      </trkpt>
      <trkpt lat="43.45823" lon="6.36555">
        <ele>129.7</ele>
        <time>2023-05-31T07:50:55.000Z</time>
      </trkpt>
      <trkpt lat="43.45813" lon="6.36543">
        <ele>128</ele>
        <time>2023-05-31T07:51:00.000Z</time>
      </trkpt>
      <trkpt lat="43.45802" lon="6.36543">
        <ele>130</ele>
        <time>2023-05-31T07:51:06.000Z</time>
      </trkpt>
      <trkpt lat="43.45793" lon="6.36541">
        <ele>130.1</ele>
        <time>2023-05-31T07:51:11.000Z</time>
      </trkpt>
      <trkpt lat="43.45784" lon="6.36547">
        <ele>129.5</ele>
        <time>2023-05-31T07:51:17.000Z</time>
      </trkpt>
      <trkpt lat="43.45778" lon="6.36558">
        <ele>130.9</ele>
        <time>2023-05-31T07:51:24.000Z</time>
      </trkpt>
      <trkpt lat="43.45769" lon="6.36562">
        <ele>129</ele>
        <time>2023-05-31T07:51:30.000Z</time>
      </trkpt>
      <trkpt lat="43.45771" lon="6.36589">
        <ele>130.9</ele>
        <time>2023-05-31T07:51:37.000Z</time>
      </trkpt>
      <trkpt lat="43.45763" lon="6.36597">
        <ele>130.5</ele>
        <time>2023-05-31T07:51:45.000Z</time>
      </trkpt>
      <trkpt lat="43.45752" lon="6.36592">
        <ele>129.4</ele>
        <time>2023-05-31T07:51:52.000Z</time>
      </trkpt>
      <trkpt lat="43.45745" lon="6.36584">
        <ele>128.6</ele>
        <time>2023-05-31T07:51:54.000Z</time>
      </trkpt>
      <trkpt lat="43.45737" lon="6.36579">
        <ele>127.8</ele>
        <time>2023-05-31T07:51:58.000Z</time>
      </trkpt>
      <trkpt lat="43.45727" lon="6.36573">
        <ele>128.2</ele>
        <time>2023-05-31T07:52:02.000Z</time>
      </trkpt>
      <trkpt lat="43.45721" lon="6.36584">
        <ele>128.9</ele>
        <time>2023-05-31T07:52:17.000Z</time>
      </trkpt>
      <trkpt lat="43.45723" lon="6.36594">
        <ele>129.4</ele>
        <time>2023-05-31T07:52:26.000Z</time>
      </trkpt>
      <trkpt lat="43.45735" lon="6.36601">
        <ele>129.3</ele>
        <time>2023-05-31T07:52:31.000Z</time>
      </trkpt>
      <trkpt lat="43.45744" lon="6.36603">
        <ele>129.4</ele>
        <time>2023-05-31T07:52:34.000Z</time>
      </trkpt>
      <trkpt lat="43.45754" lon="6.36597">
        <ele>130.3</ele>
        <time>2023-05-31T07:52:39.000Z</time>
      </trkpt>
      <trkpt lat="43.45749" lon="6.36585">
        <ele>131.1</ele>
        <time>2023-05-31T07:52:46.000Z</time>
      </trkpt>
      <trkpt lat="43.45739" lon="6.36578">
        <ele>130.8</ele>
        <time>2023-05-31T07:52:51.000Z</time>
      </trkpt>
      <trkpt lat="43.45731" lon="6.36568">
        <ele>131.6</ele>
        <time>2023-05-31T07:52:58.000Z</time>
      </trkpt>
      <trkpt lat="43.45726" lon="6.36557">
        <ele>132.8</ele>
        <time>2023-05-31T07:53:07.000Z</time>
      </trkpt>
      <trkpt lat="43.45721" lon="6.36547">
        <ele>133.2</ele>
        <time>2023-05-31T07:53:13.000Z</time>
      </trkpt>
      <trkpt lat="43.45713" lon="6.36539">
        <ele>133.2</ele>
        <time>2023-05-31T07:53:21.000Z</time>
      </trkpt>
      <trkpt lat="43.45704" lon="6.36537">
        <ele>135.4</ele>
        <time>2023-05-31T07:53:29.000Z</time>
      </trkpt>
      <trkpt lat="43.45694" lon="6.36537">
        <ele>137.9</ele>
        <time>2023-05-31T07:53:41.000Z</time>
      </trkpt>
      <trkpt lat="43.45685" lon="6.36543">
        <ele>137.7</ele>
        <time>2023-05-31T07:53:48.000Z</time>
      </trkpt>
      <trkpt lat="43.45682" lon="6.36555">
        <ele>138.8</ele>
        <time>2023-05-31T07:53:53.000Z</time>
      </trkpt>
      <trkpt lat="43.45681" lon="6.3657">
        <ele>138</ele>
        <time>2023-05-31T07:54:01.000Z</time>
      </trkpt>
      <trkpt lat="43.4567" lon="6.36563">
        <ele>139.5</ele>
        <time>2023-05-31T07:54:07.000Z</time>
      </trkpt>
      <trkpt lat="43.45665" lon="6.36552">
        <ele>140.2</ele>
        <time>2023-05-31T07:54:10.000Z</time>
      </trkpt>
      <trkpt lat="43.45658" lon="6.3654">
        <ele>140.8</ele>
        <time>2023-05-31T07:54:15.000Z</time>
      </trkpt>
      <trkpt lat="43.45654" lon="6.36526">
        <ele>140.6</ele>
        <time>2023-05-31T07:54:19.000Z</time>
      </trkpt>
      <trkpt lat="43.4565" lon="6.36538">
        <ele>143.9</ele>
        <time>2023-05-31T07:54:37.000Z</time>
      </trkpt>
      <trkpt lat="43.45644" lon="6.36548">
        <ele>145.2</ele>
        <time>2023-05-31T07:54:46.000Z</time>
      </trkpt>
      <trkpt lat="43.45635" lon="6.36548">
        <ele>145.3</ele>
        <time>2023-05-31T07:54:55.000Z</time>
      </trkpt>
      <trkpt lat="43.45626" lon="6.36547">
        <ele>146.9</ele>
        <time>2023-05-31T07:55:03.000Z</time>
      </trkpt>
      <trkpt lat="43.45617" lon="6.36542">
        <ele>148.2</ele>
        <time>2023-05-31T07:55:07.000Z</time>
      </trkpt>
      <trkpt lat="43.45613" lon="6.36541">
        <ele>148.3</ele>
        <time>2023-05-31T07:55:16.000Z</time>
      </trkpt>
      <trkpt lat="43.45612" lon="6.36528">
        <ele>150.6</ele>
        <time>2023-05-31T07:55:37.000Z</time>
      </trkpt>
      <trkpt lat="43.45608" lon="6.36527">
        <ele>151.1</ele>
        <time>2023-05-31T07:55:44.000Z</time>
      </trkpt>
      <trkpt lat="43.456" lon="6.36521">
        <ele>152.4</ele>
        <time>2023-05-31T07:55:52.000Z</time>
      </trkpt>
      <trkpt lat="43.45595" lon="6.36524">
        <ele>152.7</ele>
        <time>2023-05-31T07:56:01.000Z</time>
      </trkpt>
      <trkpt lat="43.45586" lon="6.36519">
        <ele>153.3</ele>
        <time>2023-05-31T07:56:09.000Z</time>
      </trkpt>
      <trkpt lat="43.45577" lon="6.36518">
        <ele>154.2</ele>
        <time>2023-05-31T07:56:19.000Z</time>
      </trkpt>
      <trkpt lat="43.45568" lon="6.36516">
        <ele>154.7</ele>
        <time>2023-05-31T07:56:28.000Z</time>
      </trkpt>
      <trkpt lat="43.4556" lon="6.3651">
        <ele>154.3</ele>
        <time>2023-05-31T07:56:33.000Z</time>
      </trkpt>
      <trkpt lat="43.45548" lon="6.36507">
        <ele>154.6</ele>
        <time>2023-05-31T07:56:45.000Z</time>
      </trkpt>
      <trkpt lat="43.4554" lon="6.36515">
        <ele>155.1</ele>
        <time>2023-05-31T07:56:50.000Z</time>
      </trkpt>
      <trkpt lat="43.45533" lon="6.36507">
        <ele>155.8</ele>
        <time>2023-05-31T07:56:55.000Z</time>
      </trkpt>
      <trkpt lat="43.45526" lon="6.36497">
        <ele>155.7</ele>
        <time>2023-05-31T07:57:02.000Z</time>
      </trkpt>
      <trkpt lat="43.45516" lon="6.36492">
        <ele>156.5</ele>
        <time>2023-05-31T07:57:10.000Z</time>
      </trkpt>
      <trkpt lat="43.45509" lon="6.36483">
        <ele>157</ele>
        <time>2023-05-31T07:57:19.000Z</time>
      </trkpt>
      <trkpt lat="43.455" lon="6.36478">
        <ele>157.7</ele>
        <time>2023-05-31T07:57:29.000Z</time>
      </trkpt>
      <trkpt lat="43.45493" lon="6.36471">
        <ele>158.7</ele>
        <time>2023-05-31T07:57:37.000Z</time>
      </trkpt>
      <trkpt lat="43.45485" lon="6.36463">
        <ele>159.5</ele>
        <time>2023-05-31T07:57:48.000Z</time>
      </trkpt>
      <trkpt lat="43.45477" lon="6.36454">
        <ele>161.8</ele>
        <time>2023-05-31T07:57:58.000Z</time>
      </trkpt>
      <trkpt lat="43.45469" lon="6.36447">
        <ele>162.1</ele>
        <time>2023-05-31T07:58:07.000Z</time>
      </trkpt>
      <trkpt lat="43.45461" lon="6.36439">
        <ele>162.4</ele>
        <time>2023-05-31T07:58:18.000Z</time>
      </trkpt>
      <trkpt lat="43.45451" lon="6.36439">
        <ele>162.8</ele>
        <time>2023-05-31T07:58:28.000Z</time>
      </trkpt>
      <trkpt lat="43.45448" lon="6.36435">
        <ele>162</ele>
        <time>2023-05-31T07:58:37.000Z</time>
      </trkpt>
      <trkpt lat="43.45438" lon="6.36431">
        <ele>162.6</ele>
        <time>2023-05-31T07:58:47.000Z</time>
      </trkpt>
      <trkpt lat="43.4543" lon="6.36423">
        <ele>163.2</ele>
        <time>2023-05-31T07:58:54.000Z</time>
      </trkpt>
      <trkpt lat="43.45422" lon="6.36428">
        <ele>164.3</ele>
        <time>2023-05-31T07:59:04.000Z</time>
      </trkpt>
      <trkpt lat="43.45413" lon="6.36423">
        <ele>164.8</ele>
        <time>2023-05-31T07:59:13.000Z</time>
      </trkpt>
      <trkpt lat="43.45403" lon="6.36425">
        <ele>164.2</ele>
        <time>2023-05-31T07:59:25.000Z</time>
      </trkpt>
      <trkpt lat="43.45393" lon="6.3642">
        <ele>163.9</ele>
        <time>2023-05-31T07:59:30.000Z</time>
      </trkpt>
      <trkpt lat="43.45385" lon="6.36428">
        <ele>163</ele>
        <time>2023-05-31T07:59:35.000Z</time>
      </trkpt>
      <trkpt lat="43.45374" lon="6.3643">
        <ele>162.9</ele>
        <time>2023-05-31T07:59:42.000Z</time>
      </trkpt>
      <trkpt lat="43.45369" lon="6.36443">
        <ele>163</ele>
        <time>2023-05-31T07:59:47.000Z</time>
      </trkpt>
      <trkpt lat="43.45359" lon="6.36446">
        <ele>161.8</ele>
        <time>2023-05-31T07:59:53.000Z</time>
      </trkpt>
      <trkpt lat="43.45349" lon="6.36447">
        <ele>162.1</ele>
        <time>2023-05-31T07:59:57.000Z</time>
      </trkpt>
      <trkpt lat="43.45339" lon="6.36447">
        <ele>162.1</ele>
        <time>2023-05-31T08:00:04.000Z</time>
      </trkpt>
      <trkpt lat="43.4533" lon="6.36446">
        <ele>162.2</ele>
        <time>2023-05-31T08:00:09.000Z</time>
      </trkpt>
      <trkpt lat="43.45322" lon="6.36451">
        <ele>161.2</ele>
        <time>2023-05-31T08:00:18.000Z</time>
      </trkpt>
      <trkpt lat="43.45312" lon="6.36451">
        <ele>161.8</ele>
        <time>2023-05-31T08:00:26.000Z</time>
      </trkpt>
      <trkpt lat="43.45302" lon="6.36454">
        <ele>161.6</ele>
        <time>2023-05-31T08:00:33.000Z</time>
      </trkpt>
      <trkpt lat="43.45293" lon="6.36458">
        <ele>161.8</ele>
        <time>2023-05-31T08:00:41.000Z</time>
      </trkpt>
      <trkpt lat="43.45289" lon="6.36459">
        <ele>162.2</ele>
        <time>2023-05-31T08:00:49.000Z</time>
      </trkpt>
      <trkpt lat="43.4528" lon="6.36462">
        <ele>161.9</ele>
        <time>2023-05-31T08:00:56.000Z</time>
      </trkpt>
      <trkpt lat="43.45272" lon="6.3647">
        <ele>162.1</ele>
        <time>2023-05-31T08:01:04.000Z</time>
      </trkpt>
      <trkpt lat="43.45264" lon="6.36479">
        <ele>162.2</ele>
        <time>2023-05-31T08:01:10.000Z</time>
      </trkpt>
      <trkpt lat="43.45256" lon="6.36487">
        <ele>162</ele>
        <time>2023-05-31T08:01:18.000Z</time>
      </trkpt>
      <trkpt lat="43.45254" lon="6.365">
        <ele>162.3</ele>
        <time>2023-05-31T08:01:27.000Z</time>
      </trkpt>
      <trkpt lat="43.45248" lon="6.36509">
        <ele>162.9</ele>
        <time>2023-05-31T08:01:42.000Z</time>
      </trkpt>
      <trkpt lat="43.45238" lon="6.36513">
        <ele>163.4</ele>
        <time>2023-05-31T08:01:52.000Z</time>
      </trkpt>
      <trkpt lat="43.45229" lon="6.36513">
        <ele>164.7</ele>
        <time>2023-05-31T08:01:57.000Z</time>
      </trkpt>
      <trkpt lat="43.45219" lon="6.36513">
        <ele>164.8</ele>
        <time>2023-05-31T08:02:01.000Z</time>
      </trkpt>
      <trkpt lat="43.4521" lon="6.36519">
        <ele>165</ele>
        <time>2023-05-31T08:02:13.000Z</time>
      </trkpt>
      <trkpt lat="43.45202" lon="6.36524">
        <ele>166.8</ele>
        <time>2023-05-31T08:02:26.000Z</time>
      </trkpt>
      <trkpt lat="43.45193" lon="6.36524">
        <ele>167.7</ele>
        <time>2023-05-31T08:02:32.000Z</time>
      </trkpt>
      <trkpt lat="43.45183" lon="6.36519">
        <ele>168.2</ele>
        <time>2023-05-31T08:02:36.000Z</time>
      </trkpt>
      <trkpt lat="43.45174" lon="6.36523">
        <ele>168.6</ele>
        <time>2023-05-31T08:02:46.000Z</time>
      </trkpt>
      <trkpt lat="43.45163" lon="6.36516">
        <ele>169.2</ele>
        <time>2023-05-31T08:02:51.000Z</time>
      </trkpt>
      <trkpt lat="43.45165" lon="6.36531">
        <ele>170</ele>
        <time>2023-05-31T08:02:59.000Z</time>
      </trkpt>
      <trkpt lat="43.4517" lon="6.36542">
        <ele>170.3</ele>
        <time>2023-05-31T08:03:03.000Z</time>
      </trkpt>
      <trkpt lat="43.4517" lon="6.36555">
        <ele>171.4</ele>
        <time>2023-05-31T08:03:10.000Z</time>
      </trkpt>
      <trkpt lat="43.4516" lon="6.36559">
        <ele>171.4</ele>
        <time>2023-05-31T08:03:20.000Z</time>
      </trkpt>
      <trkpt lat="43.45151" lon="6.36563">
        <ele>173.6</ele>
        <time>2023-05-31T08:03:31.000Z</time>
      </trkpt>
      <trkpt lat="43.45153" lon="6.36576">
        <ele>173.8</ele>
        <time>2023-05-31T08:03:39.000Z</time>
      </trkpt>
      <trkpt lat="43.45152" lon="6.3659">
        <ele>174.3</ele>
        <time>2023-05-31T08:03:46.000Z</time>
      </trkpt>
      <trkpt lat="43.4515" lon="6.36595">
        <ele>173.9</ele>
        <time>2023-05-31T08:03:54.000Z</time>
      </trkpt>
      <trkpt lat="43.45141" lon="6.366">
        <ele>175.7</ele>
        <time>2023-05-31T08:04:16.000Z</time>
      </trkpt>
      <trkpt lat="43.45132" lon="6.36591">
        <ele>176</ele>
        <time>2023-05-31T08:04:21.000Z</time>
      </trkpt>
      <trkpt lat="43.45124" lon="6.36582">
        <ele>176.9</ele>
        <time>2023-05-31T08:04:29.000Z</time>
      </trkpt>
      <trkpt lat="43.45121" lon="6.36579">
        <ele>177.7</ele>
        <time>2023-05-31T08:04:43.000Z</time>
      </trkpt>
      <trkpt lat="43.45111" lon="6.36578">
        <ele>177.4</ele>
        <time>2023-05-31T08:04:52.000Z</time>
      </trkpt>
      <trkpt lat="43.45107" lon="6.3659">
        <ele>178.7</ele>
        <time>2023-05-31T08:05:00.000Z</time>
      </trkpt>
      <trkpt lat="43.4511" lon="6.36598">
        <ele>178.5</ele>
        <time>2023-05-31T08:05:10.000Z</time>
      </trkpt>
      <trkpt lat="43.45117" lon="6.36607">
        <ele>178.1</ele>
        <time>2023-05-31T08:05:22.000Z</time>
      </trkpt>
      <trkpt lat="43.45118" lon="6.3661">
        <ele>178.1</ele>
        <time>2023-05-31T08:05:28.000Z</time>
      </trkpt>
      <trkpt lat="43.45121" lon="6.36612">
        <ele>178.2</ele>
        <time>2023-05-31T08:05:36.000Z</time>
      </trkpt>
      <trkpt lat="43.45114" lon="6.36608">
        <ele>177.9</ele>
        <time>2023-05-31T08:05:50.000Z</time>
      </trkpt>
      <trkpt lat="43.45109" lon="6.36617">
        <ele>177.4</ele>
        <time>2023-05-31T08:06:18.000Z</time>
      </trkpt>
      <trkpt lat="43.45106" lon="6.36615">
        <ele>177.6</ele>
        <time>2023-05-31T08:06:30.000Z</time>
      </trkpt>
      <trkpt lat="43.45106" lon="6.36611">
        <ele>177.4</ele>
        <time>2023-05-31T08:07:13.000Z</time>
      </trkpt>
      <trkpt lat="43.45097" lon="6.36605">
        <ele>178.5</ele>
        <time>2023-05-31T08:07:52.000Z</time>
      </trkpt>
      <trkpt lat="43.45089" lon="6.36598">
        <ele>178</ele>
        <time>2023-05-31T08:08:00.000Z</time>
      </trkpt>
      <trkpt lat="43.4508" lon="6.36594">
        <ele>178.5</ele>
        <time>2023-05-31T08:08:06.000Z</time>
      </trkpt>
      <trkpt lat="43.45072" lon="6.36586">
        <ele>178.4</ele>
        <time>2023-05-31T08:08:16.000Z</time>
      </trkpt>
      <trkpt lat="43.45063" lon="6.36582">
        <ele>177.8</ele>
        <time>2023-05-31T08:08:23.000Z</time>
      </trkpt>
      <trkpt lat="43.45053" lon="6.36579">
        <ele>177</ele>
        <time>2023-05-31T08:08:30.000Z</time>
      </trkpt>
      <trkpt lat="43.45044" lon="6.36583">
        <ele>177.8</ele>
        <time>2023-05-31T08:08:39.000Z</time>
      </trkpt>
      <trkpt lat="43.45034" lon="6.36581">
        <ele>177</ele>
        <time>2023-05-31T08:08:47.000Z</time>
      </trkpt>
      <trkpt lat="43.45023" lon="6.36578">
        <ele>177.7</ele>
        <time>2023-05-31T08:08:53.000Z</time>
      </trkpt>
      <trkpt lat="43.45013" lon="6.36575">
        <ele>177</ele>
        <time>2023-05-31T08:08:59.000Z</time>
      </trkpt>
      <trkpt lat="43.45004" lon="6.36571">
        <ele>176.6</ele>
        <time>2023-05-31T08:09:06.000Z</time>
      </trkpt>
      <trkpt lat="43.44995" lon="6.36574">
        <ele>177.3</ele>
        <time>2023-05-31T08:09:14.000Z</time>
      </trkpt>
      <trkpt lat="43.44985" lon="6.36574">
        <ele>177.5</ele>
        <time>2023-05-31T08:09:25.000Z</time>
      </trkpt>
      <trkpt lat="43.44976" lon="6.36572">
        <ele>177.7</ele>
        <time>2023-05-31T08:09:36.000Z</time>
      </trkpt>
      <trkpt lat="43.44966" lon="6.3657">
        <ele>178.1</ele>
        <time>2023-05-31T08:09:46.000Z</time>
      </trkpt>
      <trkpt lat="43.44955" lon="6.3657">
        <ele>178.7</ele>
        <time>2023-05-31T08:09:54.000Z</time>
      </trkpt>
      <trkpt lat="43.44945" lon="6.36565">
        <ele>179.4</ele>
        <time>2023-05-31T08:10:03.000Z</time>
      </trkpt>
      <trkpt lat="43.44935" lon="6.36566">
        <ele>179.8</ele>
        <time>2023-05-31T08:10:10.000Z</time>
      </trkpt>
      <trkpt lat="43.44926" lon="6.36562">
        <ele>180</ele>
        <time>2023-05-31T08:10:17.000Z</time>
      </trkpt>
      <trkpt lat="43.44917" lon="6.36559">
        <ele>180.6</ele>
        <time>2023-05-31T08:10:28.000Z</time>
      </trkpt>
      <trkpt lat="43.44913" lon="6.36561">
        <ele>181.4</ele>
        <time>2023-05-31T08:10:34.000Z</time>
      </trkpt>
      <trkpt lat="43.44904" lon="6.36561">
        <ele>182.3</ele>
        <time>2023-05-31T08:10:43.000Z</time>
      </trkpt>
      <trkpt lat="43.44894" lon="6.36556">
        <ele>182.9</ele>
        <time>2023-05-31T08:10:51.000Z</time>
      </trkpt>
      <trkpt lat="43.44884" lon="6.36553">
        <ele>184.3</ele>
        <time>2023-05-31T08:10:58.000Z</time>
      </trkpt>
      <trkpt lat="43.44876" lon="6.36549">
        <ele>184.6</ele>
        <time>2023-05-31T08:11:04.000Z</time>
      </trkpt>
      <trkpt lat="43.4487" lon="6.36555">
        <ele>184.7</ele>
        <time>2023-05-31T08:11:17.000Z</time>
      </trkpt>
      <trkpt lat="43.4487" lon="6.36561">
        <ele>185.1</ele>
        <time>2023-05-31T08:11:30.000Z</time>
      </trkpt>
      <trkpt lat="43.44873" lon="6.36561">
        <ele>185.3</ele>
        <time>2023-05-31T08:11:39.000Z</time>
      </trkpt>
      <trkpt lat="43.44877" lon="6.36556">
        <ele>185</ele>
        <time>2023-05-31T08:11:47.000Z</time>
      </trkpt>
      <trkpt lat="43.4487" lon="6.36545">
        <ele>185.4</ele>
        <time>2023-05-31T08:11:58.000Z</time>
      </trkpt>
      <trkpt lat="43.44866" lon="6.36533">
        <ele>185.7</ele>
        <time>2023-05-31T08:12:06.000Z</time>
      </trkpt>
      <trkpt lat="43.44867" lon="6.3652">
        <ele>185.9</ele>
        <time>2023-05-31T08:12:14.000Z</time>
      </trkpt>
      <trkpt lat="43.44865" lon="6.36506">
        <ele>186.3</ele>
        <time>2023-05-31T08:12:22.000Z</time>
      </trkpt>
      <trkpt lat="43.44857" lon="6.36501">
        <ele>184.4</ele>
        <time>2023-05-31T08:12:30.000Z</time>
      </trkpt>
      <trkpt lat="43.4485" lon="6.365">
        <ele>184.2</ele>
        <time>2023-05-31T08:12:40.000Z</time>
      </trkpt>
      <trkpt lat="43.44845" lon="6.3651">
        <ele>184.7</ele>
        <time>2023-05-31T08:12:51.000Z</time>
      </trkpt>
      <trkpt lat="43.44844" lon="6.3651">
        <ele>184.8</ele>
        <time>2023-05-31T08:12:53.000Z</time>
      </trkpt>
      <trkpt lat="43.44836" lon="6.36506">
        <ele>182.2</ele>
        <time>2023-05-31T08:13:06.000Z</time>
      </trkpt>
      <trkpt lat="43.44826" lon="6.36505">
        <ele>182.9</ele>
        <time>2023-05-31T08:13:13.000Z</time>
      </trkpt>
      <trkpt lat="43.44817" lon="6.36509">
        <ele>181.5</ele>
        <time>2023-05-31T08:13:19.000Z</time>
      </trkpt>
      <trkpt lat="43.44808" lon="6.36513">
        <ele>180.7</ele>
        <time>2023-05-31T08:13:26.000Z</time>
      </trkpt>
      <trkpt lat="43.44799" lon="6.36517">
        <ele>177.9</ele>
        <time>2023-05-31T08:13:38.000Z</time>
      </trkpt>
      <trkpt lat="43.4479" lon="6.36511">
        <ele>178</ele>
        <time>2023-05-31T08:13:43.000Z</time>
      </trkpt>
      <trkpt lat="43.44781" lon="6.36505">
        <ele>178.6</ele>
        <time>2023-05-31T08:13:49.000Z</time>
      </trkpt>
      <trkpt lat="43.44771" lon="6.36503">
        <ele>176.7</ele>
        <time>2023-05-31T08:13:55.000Z</time>
      </trkpt>
      <trkpt lat="43.44761" lon="6.36503">
        <ele>175.7</ele>
        <time>2023-05-31T08:14:01.000Z</time>
      </trkpt>
      <trkpt lat="43.44752" lon="6.36503">
        <ele>176.1</ele>
        <time>2023-05-31T08:14:08.000Z</time>
      </trkpt>
      <trkpt lat="43.44742" lon="6.36496">
        <ele>173.7</ele>
        <time>2023-05-31T08:14:15.000Z</time>
      </trkpt>
      <trkpt lat="43.44733" lon="6.36499">
        <ele>172.5</ele>
        <time>2023-05-31T08:14:28.000Z</time>
      </trkpt>
      <trkpt lat="43.44726" lon="6.36489">
        <ele>172.6</ele>
        <time>2023-05-31T08:14:35.000Z</time>
      </trkpt>
      <trkpt lat="43.44718" lon="6.36481">
        <ele>169.9</ele>
        <time>2023-05-31T08:14:49.000Z</time>
      </trkpt>
      <trkpt lat="43.44714" lon="6.36492">
        <ele>169.9</ele>
        <time>2023-05-31T08:14:53.000Z</time>
      </trkpt>
      <trkpt lat="43.44707" lon="6.36502">
        <ele>169.4</ele>
        <time>2023-05-31T08:14:58.000Z</time>
      </trkpt>
      <trkpt lat="43.447" lon="6.36512">
        <ele>166.9</ele>
        <time>2023-05-31T08:15:06.000Z</time>
      </trkpt>
      <trkpt lat="43.44692" lon="6.36519">
        <ele>166.8</ele>
        <time>2023-05-31T08:15:11.000Z</time>
      </trkpt>
      <trkpt lat="43.4469" lon="6.36533">
        <ele>166.2</ele>
        <time>2023-05-31T08:15:20.000Z</time>
      </trkpt>
      <trkpt lat="43.44683" lon="6.36552">
        <ele>165.5</ele>
        <time>2023-05-31T08:15:27.000Z</time>
      </trkpt>
      <trkpt lat="43.44677" lon="6.36561">
        <ele>164.8</ele>
        <time>2023-05-31T08:15:34.000Z</time>
      </trkpt>
      <trkpt lat="43.44678" lon="6.36574">
        <ele>164.5</ele>
        <time>2023-05-31T08:15:40.000Z</time>
      </trkpt>
      <trkpt lat="43.44672" lon="6.36583">
        <ele>161.5</ele>
        <time>2023-05-31T08:15:48.000Z</time>
      </trkpt>
      <trkpt lat="43.44665" lon="6.36593">
        <ele>160</ele>
        <time>2023-05-31T08:16:00.000Z</time>
      </trkpt>
      <trkpt lat="43.44656" lon="6.36599">
        <ele>158.2</ele>
        <time>2023-05-31T08:16:10.000Z</time>
      </trkpt>
      <trkpt lat="43.44648" lon="6.36607">
        <ele>155.8</ele>
        <time>2023-05-31T08:16:21.000Z</time>
      </trkpt>
      <trkpt lat="43.44638" lon="6.3661">
        <ele>154.9</ele>
        <time>2023-05-31T08:16:28.000Z</time>
      </trkpt>
      <trkpt lat="43.44628" lon="6.36605">
        <ele>155.1</ele>
        <time>2023-05-31T08:16:31.000Z</time>
      </trkpt>
      <trkpt lat="43.44617" lon="6.36603">
        <ele>155.3</ele>
        <time>2023-05-31T08:16:34.000Z</time>
      </trkpt>
      <trkpt lat="43.44611" lon="6.36613">
        <ele>154.6</ele>
        <time>2023-05-31T08:16:43.000Z</time>
      </trkpt>
      <trkpt lat="43.44609" lon="6.36627">
        <ele>153.8</ele>
        <time>2023-05-31T08:16:49.000Z</time>
      </trkpt>
      <trkpt lat="43.44608" lon="6.36644">
        <ele>151.3</ele>
        <time>2023-05-31T08:16:56.000Z</time>
      </trkpt>
      <trkpt lat="43.44599" lon="6.36651">
        <ele>149</ele>
        <time>2023-05-31T08:17:05.000Z</time>
      </trkpt>
      <trkpt lat="43.44592" lon="6.36659">
        <ele>148.1</ele>
        <time>2023-05-31T08:17:16.000Z</time>
      </trkpt>
      <trkpt lat="43.44587" lon="6.3667">
        <ele>145.8</ele>
        <time>2023-05-31T08:17:24.000Z</time>
      </trkpt>
      <trkpt lat="43.44582" lon="6.36669">
        <ele>145</ele>
        <time>2023-05-31T08:17:39.000Z</time>
      </trkpt>
      <trkpt lat="43.44575" lon="6.3666">
        <ele>145</ele>
        <time>2023-05-31T08:17:54.000Z</time>
      </trkpt>
      <trkpt lat="43.44569" lon="6.3665">
        <ele>145</ele>
        <time>2023-05-31T08:18:06.000Z</time>
      </trkpt>
      <trkpt lat="43.44554" lon="6.36617">
        <ele>145</ele>
        <time>2023-05-31T08:18:22.000Z</time>
      </trkpt>
      <trkpt lat="43.44558" lon="6.36632">
        <ele>145.2</ele>
        <time>2023-05-31T08:18:28.000Z</time>
      </trkpt>
      <trkpt lat="43.44562" lon="6.36644">
        <ele>145.2</ele>
        <time>2023-05-31T08:18:34.000Z</time>
      </trkpt>
      <trkpt lat="43.44573" lon="6.36657">
        <ele>145</ele>
        <time>2023-05-31T08:18:43.000Z</time>
      </trkpt>
      <trkpt lat="43.4456" lon="6.36643">
        <ele>145.3</ele>
        <time>2023-05-31T08:18:53.000Z</time>
      </trkpt>
      <trkpt lat="43.44548" lon="6.36628">
        <ele>145.3</ele>
        <time>2023-05-31T08:18:55.000Z</time>
      </trkpt>
      <trkpt lat="43.44536" lon="6.36616">
        <ele>145.2</ele>
        <time>2023-05-31T08:18:57.000Z</time>
      </trkpt>
      <trkpt lat="43.44542" lon="6.36631">
        <ele>145</ele>
        <time>2023-05-31T08:19:04.000Z</time>
      </trkpt>
      <trkpt lat="43.44554" lon="6.36642">
        <ele>145</ele>
        <time>2023-05-31T08:19:12.000Z</time>
      </trkpt>
      <trkpt lat="43.44561" lon="6.36655">
        <ele>145</ele>
        <time>2023-05-31T08:19:21.000Z</time>
      </trkpt>
      <trkpt lat="43.44561" lon="6.36658">
        <ele>143.8</ele>
        <time>2023-05-31T08:19:29.000Z</time>
      </trkpt>
      <trkpt lat="43.44557" lon="6.36645">
        <ele>142.8</ele>
        <time>2023-05-31T08:19:36.000Z</time>
      </trkpt>
      <trkpt lat="43.44551" lon="6.36631">
        <ele>143</ele>
        <time>2023-05-31T08:19:44.000Z</time>
      </trkpt>
      <trkpt lat="43.44548" lon="6.36618">
        <ele>143.1</ele>
        <time>2023-05-31T08:19:50.000Z</time>
      </trkpt>
      <trkpt lat="43.4454" lon="6.36626">
        <ele>142.7</ele>
        <time>2023-05-31T08:19:55.000Z</time>
      </trkpt>
      <trkpt lat="43.44534" lon="6.36635">
        <ele>141.4</ele>
        <time>2023-05-31T08:19:59.000Z</time>
      </trkpt>
      <trkpt lat="43.44524" lon="6.36642">
        <ele>140.5</ele>
        <time>2023-05-31T08:20:03.000Z</time>
      </trkpt>
      <trkpt lat="43.44515" lon="6.36643">
        <ele>139.4</ele>
        <time>2023-05-31T08:20:07.000Z</time>
      </trkpt>
      <trkpt lat="43.44506" lon="6.36649">
        <ele>139.3</ele>
        <time>2023-05-31T08:20:12.000Z</time>
      </trkpt>
      <trkpt lat="43.44498" lon="6.36656">
        <ele>138.7</ele>
        <time>2023-05-31T08:20:16.000Z</time>
      </trkpt>
      <trkpt lat="43.44487" lon="6.36657">
        <ele>136.2</ele>
        <time>2023-05-31T08:20:21.000Z</time>
      </trkpt>
      <trkpt lat="43.44478" lon="6.36662">
        <ele>135.5</ele>
        <time>2023-05-31T08:20:28.000Z</time>
      </trkpt>
      <trkpt lat="43.44476" lon="6.36647">
        <ele>134.3</ele>
        <time>2023-05-31T08:20:37.000Z</time>
      </trkpt>
      <trkpt lat="43.44479" lon="6.36634">
        <ele>133.4</ele>
        <time>2023-05-31T08:20:45.000Z</time>
      </trkpt>
      <trkpt lat="43.44486" lon="6.36627">
        <ele>132.5</ele>
        <time>2023-05-31T08:20:55.000Z</time>
      </trkpt>
      <trkpt lat="43.44496" lon="6.36622">
        <ele>131.8</ele>
        <time>2023-05-31T08:21:01.000Z</time>
      </trkpt>
      <trkpt lat="43.44501" lon="6.36612">
        <ele>130.3</ele>
        <time>2023-05-31T08:21:07.000Z</time>
      </trkpt>
      <trkpt lat="43.44507" lon="6.36601">
        <ele>130.4</ele>
        <time>2023-05-31T08:21:14.000Z</time>
      </trkpt>
      <trkpt lat="43.44513" lon="6.3659">
        <ele>129.2</ele>
        <time>2023-05-31T08:21:19.000Z</time>
      </trkpt>
      <trkpt lat="43.4452" lon="6.36581">
        <ele>127.1</ele>
        <time>2023-05-31T08:21:26.000Z</time>
      </trkpt>
      <trkpt lat="43.44522" lon="6.36567">
        <ele>127.3</ele>
        <time>2023-05-31T08:21:31.000Z</time>
      </trkpt>
      <trkpt lat="43.44517" lon="6.36554">
        <ele>126.5</ele>
        <time>2023-05-31T08:21:34.000Z</time>
      </trkpt>
      <trkpt lat="43.44511" lon="6.36546">
        <ele>124.6</ele>
        <time>2023-05-31T08:21:38.000Z</time>
      </trkpt>
      <trkpt lat="43.44499" lon="6.36543">
        <ele>122</ele>
        <time>2023-05-31T08:21:46.000Z</time>
      </trkpt>
      <trkpt lat="43.44489" lon="6.36539">
        <ele>121.1</ele>
        <time>2023-05-31T08:21:52.000Z</time>
      </trkpt>
      <trkpt lat="43.44479" lon="6.36539">
        <ele>120.8</ele>
        <time>2023-05-31T08:21:58.000Z</time>
      </trkpt>
      <trkpt lat="43.4447" lon="6.36544">
        <ele>119.9</ele>
        <time>2023-05-31T08:22:05.000Z</time>
      </trkpt>
      <trkpt lat="43.4446" lon="6.36542">
        <ele>117.8</ele>
        <time>2023-05-31T08:22:12.000Z</time>
      </trkpt>
      <trkpt lat="43.44451" lon="6.36546">
        <ele>117</ele>
        <time>2023-05-31T08:22:17.000Z</time>
      </trkpt>
      <trkpt lat="43.44446" lon="6.36557">
        <ele>116.7</ele>
        <time>2023-05-31T08:22:23.000Z</time>
      </trkpt>
      <trkpt lat="43.4444" lon="6.36567">
        <ele>115.2</ele>
        <time>2023-05-31T08:22:28.000Z</time>
      </trkpt>
      <trkpt lat="43.44433" lon="6.36576">
        <ele>113</ele>
        <time>2023-05-31T08:22:35.000Z</time>
      </trkpt>
      <trkpt lat="43.44428" lon="6.36588">
        <ele>112.8</ele>
        <time>2023-05-31T08:22:39.000Z</time>
      </trkpt>
      <trkpt lat="43.44425" lon="6.366">
        <ele>109.9</ele>
        <time>2023-05-31T08:22:46.000Z</time>
      </trkpt>
      <trkpt lat="43.44419" lon="6.36611">
        <ele>107.6</ele>
        <time>2023-05-31T08:22:52.000Z</time>
      </trkpt>
      <trkpt lat="43.44417" lon="6.36624">
        <ele>106.7</ele>
        <time>2023-05-31T08:22:58.000Z</time>
      </trkpt>
      <trkpt lat="43.44419" lon="6.36637">
        <ele>106</ele>
        <time>2023-05-31T08:23:04.000Z</time>
      </trkpt>
      <trkpt lat="43.4442" lon="6.36649">
        <ele>105.3</ele>
        <time>2023-05-31T08:23:14.000Z</time>
      </trkpt>
      <trkpt lat="43.44413" lon="6.36659">
        <ele>103.1</ele>
        <time>2023-05-31T08:23:22.000Z</time>
      </trkpt>
      <trkpt lat="43.44406" lon="6.36667">
        <ele>103</ele>
        <time>2023-05-31T08:23:29.000Z</time>
      </trkpt>
      <trkpt lat="43.44399" lon="6.36677">
        <ele>102.6</ele>
        <time>2023-05-31T08:23:34.000Z</time>
      </trkpt>
      <trkpt lat="43.44395" lon="6.36689">
        <ele>100</ele>
        <time>2023-05-31T08:23:41.000Z</time>
      </trkpt>
      <trkpt lat="43.44387" lon="6.36696">
        <ele>99.9</ele>
        <time>2023-05-31T08:23:50.000Z</time>
      </trkpt>
      <trkpt lat="43.44384" lon="6.36708">
        <ele>97.2</ele>
        <time>2023-05-31T08:23:58.000Z</time>
      </trkpt>
      <trkpt lat="43.44384" lon="6.36725">
        <ele>96</ele>
        <time>2023-05-31T08:24:07.000Z</time>
      </trkpt>
      <trkpt lat="43.44375" lon="6.3673">
        <ele>95.2</ele>
        <time>2023-05-31T08:24:15.000Z</time>
      </trkpt>
      <trkpt lat="43.44367" lon="6.36737">
        <ele>92.9</ele>
        <time>2023-05-31T08:24:26.000Z</time>
      </trkpt>
      <trkpt lat="43.44362" lon="6.36748">
        <ele>92.8</ele>
        <time>2023-05-31T08:24:36.000Z</time>
      </trkpt>
      <trkpt lat="43.44357" lon="6.36759">
        <ele>92.5</ele>
        <time>2023-05-31T08:24:43.000Z</time>
      </trkpt>
      <trkpt lat="43.44363" lon="6.3677">
        <ele>92.4</ele>
        <time>2023-05-31T08:24:48.000Z</time>
      </trkpt>
      <trkpt lat="43.44362" lon="6.36775">
        <ele>90.2</ele>
        <time>2023-05-31T08:25:03.000Z</time>
      </trkpt>
      <trkpt lat="43.4437" lon="6.36765">
        <ele>90.1</ele>
        <time>2023-05-31T08:25:21.000Z</time>
      </trkpt>
      <trkpt lat="43.44378" lon="6.36761">
        <ele>89.9</ele>
        <time>2023-05-31T08:25:29.000Z</time>
      </trkpt>
      <trkpt lat="43.44376" lon="6.36762">
        <ele>90.2</ele>
        <time>2023-05-31T08:25:36.000Z</time>
      </trkpt>
      <trkpt lat="43.44377" lon="6.36767">
        <ele>90.1</ele>
        <time>2023-05-31T08:25:44.000Z</time>
      </trkpt>
      <trkpt lat="43.44381" lon="6.36764">
        <ele>90.1</ele>
        <time>2023-05-31T08:26:04.000Z</time>
      </trkpt>
      <trkpt lat="43.44375" lon="6.36773">
        <ele>90.2</ele>
        <time>2023-05-31T08:26:17.000Z</time>
      </trkpt>
      <trkpt lat="43.44374" lon="6.36774">
        <ele>90</ele>
        <time>2023-05-31T08:26:23.000Z</time>
      </trkpt>
      <trkpt lat="43.44376" lon="6.3677">
        <ele>90.1</ele>
        <time>2023-05-31T08:26:43.000Z</time>
      </trkpt>
      <trkpt lat="43.44385" lon="6.36753">
        <ele>89</ele>
        <time>2023-05-31T08:27:00.000Z</time>
      </trkpt>
      <trkpt lat="43.44382" lon="6.36765">
        <ele>88.2</ele>
        <time>2023-05-31T08:27:10.000Z</time>
      </trkpt>
      <trkpt lat="43.44374" lon="6.36773">
        <ele>87.7</ele>
        <time>2023-05-31T08:27:20.000Z</time>
      </trkpt>
      <trkpt lat="43.44367" lon="6.36783">
        <ele>87.5</ele>
        <time>2023-05-31T08:27:30.000Z</time>
      </trkpt>
      <trkpt lat="43.44368" lon="6.36783">
        <ele>87.6</ele>
        <time>2023-05-31T08:27:34.000Z</time>
      </trkpt>
      <trkpt lat="43.44357" lon="6.36778">
        <ele>87.3</ele>
        <time>2023-05-31T08:27:45.000Z</time>
      </trkpt>
      <trkpt lat="43.44347" lon="6.3678">
        <ele>87.6</ele>
        <time>2023-05-31T08:27:49.000Z</time>
      </trkpt>
      <trkpt lat="43.44341" lon="6.3679">
        <ele>87.1</ele>
        <time>2023-05-31T08:27:55.000Z</time>
      </trkpt>
      <trkpt lat="43.44332" lon="6.36792">
        <ele>87.1</ele>
        <time>2023-05-31T08:28:01.000Z</time>
      </trkpt>
      <trkpt lat="43.44319" lon="6.36792">
        <ele>87.3</ele>
        <time>2023-05-31T08:28:06.000Z</time>
      </trkpt>
      <trkpt lat="43.44309" lon="6.3679">
        <ele>86.8</ele>
        <time>2023-05-31T08:28:11.000Z</time>
      </trkpt>
      <trkpt lat="43.44309" lon="6.36809">
        <ele>87</ele>
        <time>2023-05-31T08:28:23.000Z</time>
      </trkpt>
      <trkpt lat="43.44309" lon="6.36823">
        <ele>86.8</ele>
        <time>2023-05-31T08:28:28.000Z</time>
      </trkpt>
      <trkpt lat="43.44309" lon="6.36842">
        <ele>86.5</ele>
        <time>2023-05-31T08:28:50.000Z</time>
      </trkpt>
      <trkpt lat="43.44315" lon="6.36845">
        <ele>86.2</ele>
        <time>2023-05-31T08:29:03.000Z</time>
      </trkpt>
      <trkpt lat="43.4432" lon="6.36843">
        <ele>86</ele>
        <time>2023-05-31T08:29:24.000Z</time>
      </trkpt>
      <trkpt lat="43.44313" lon="6.36853">
        <ele>86.1</ele>
        <time>2023-05-31T08:30:10.000Z</time>
      </trkpt>
      <trkpt lat="43.44316" lon="6.36861">
        <ele>86.3</ele>
        <time>2023-05-31T08:30:22.000Z</time>
      </trkpt>
      <trkpt lat="43.44309" lon="6.36868">
        <ele>85.7</ele>
        <time>2023-05-31T08:30:30.000Z</time>
      </trkpt>
      <trkpt lat="43.443" lon="6.36871">
        <ele>86</ele>
        <time>2023-05-31T08:30:36.000Z</time>
      </trkpt>
      <trkpt lat="43.44299" lon="6.36883">
        <ele>86.5</ele>
        <time>2023-05-31T08:30:48.000Z</time>
      </trkpt>
      <trkpt lat="43.4429" lon="6.36888">
        <ele>86.5</ele>
        <time>2023-05-31T08:30:57.000Z</time>
      </trkpt>
      <trkpt lat="43.4428" lon="6.36885">
        <ele>86.2</ele>
        <time>2023-05-31T08:31:01.000Z</time>
      </trkpt>
      <trkpt lat="43.44278" lon="6.36897">
        <ele>85.6</ele>
        <time>2023-05-31T08:31:09.000Z</time>
      </trkpt>
      <trkpt lat="43.44274" lon="6.36909">
        <ele>85.9</ele>
        <time>2023-05-31T08:31:17.000Z</time>
      </trkpt>
      <trkpt lat="43.44275" lon="6.36922">
        <ele>85.6</ele>
        <time>2023-05-31T08:31:24.000Z</time>
      </trkpt>
      <trkpt lat="43.44277" lon="6.36929">
        <ele>86.1</ele>
        <time>2023-05-31T08:31:32.000Z</time>
      </trkpt>
      <trkpt lat="43.44276" lon="6.36941">
        <ele>85.7</ele>
        <time>2023-05-31T08:31:43.000Z</time>
      </trkpt>
      <trkpt lat="43.4428" lon="6.36953">
        <ele>86.2</ele>
        <time>2023-05-31T08:31:49.000Z</time>
      </trkpt>
      <trkpt lat="43.44286" lon="6.36963">
        <ele>86.3</ele>
        <time>2023-05-31T08:31:53.000Z</time>
      </trkpt>
      <trkpt lat="43.44291" lon="6.36974">
        <ele>85.8</ele>
        <time>2023-05-31T08:32:00.000Z</time>
      </trkpt>
      <trkpt lat="43.44296" lon="6.36985">
        <ele>85.9</ele>
        <time>2023-05-31T08:32:05.000Z</time>
      </trkpt>
      <trkpt lat="43.44301" lon="6.36998">
        <ele>85.9</ele>
        <time>2023-05-31T08:32:12.000Z</time>
      </trkpt>
      <trkpt lat="43.44306" lon="6.37008">
        <ele>85.9</ele>
        <time>2023-05-31T08:32:22.000Z</time>
      </trkpt>
      <trkpt lat="43.44315" lon="6.37012">
        <ele>85.4</ele>
        <time>2023-05-31T08:32:31.000Z</time>
      </trkpt>
      <trkpt lat="43.44316" lon="6.37017">
        <ele>85.6</ele>
        <time>2023-05-31T08:32:46.000Z</time>
      </trkpt>
      <trkpt lat="43.44314" lon="6.37018">
        <ele>85.7</ele>
        <time>2023-05-31T08:32:54.000Z</time>
      </trkpt>
      <trkpt lat="43.44316" lon="6.37026">
        <ele>85.5</ele>
        <time>2023-05-31T08:33:17.000Z</time>
      </trkpt>
      <trkpt lat="43.44325" lon="6.37031">
        <ele>85.8</ele>
        <time>2023-05-31T08:33:37.000Z</time>
      </trkpt>
      <trkpt lat="43.44325" lon="6.37031">
        <ele>86</ele>
        <time>2023-05-31T08:33:39.000Z</time>
      </trkpt>
      <trkpt lat="43.44324" lon="6.37041">
        <ele>86</ele>
        <time>2023-05-31T08:33:49.000Z</time>
      </trkpt>
      <trkpt lat="43.44323" lon="6.37045">
        <ele>86.2</ele>
        <time>2023-05-31T08:33:55.000Z</time>
      </trkpt>
      <trkpt lat="43.44319" lon="6.3705">
        <ele>86.1</ele>
        <time>2023-05-31T08:34:08.000Z</time>
      </trkpt>
      <trkpt lat="43.44321" lon="6.37044">
        <ele>85.8</ele>
        <time>2023-05-31T08:34:28.000Z</time>
      </trkpt>
      <trkpt lat="43.44318" lon="6.37031">
        <ele>86.1</ele>
        <time>2023-05-31T08:34:43.000Z</time>
      </trkpt>
      <trkpt lat="43.44318" lon="6.37027">
        <ele>86</ele>
        <time>2023-05-31T08:34:49.000Z</time>
      </trkpt>
      <trkpt lat="43.44325" lon="6.37038">
        <ele>85.9</ele>
        <time>2023-05-31T08:35:25.000Z</time>
      </trkpt>
      <trkpt lat="43.44328" lon="6.37039">
        <ele>85.8</ele>
        <time>2023-05-31T08:35:34.000Z</time>
      </trkpt>
      <trkpt lat="43.44331" lon="6.37035">
        <ele>85.9</ele>
        <time>2023-05-31T08:35:48.000Z</time>
      </trkpt>
      <trkpt lat="43.44324" lon="6.37037">
        <ele>86</ele>
        <time>2023-05-31T08:36:17.000Z</time>
      </trkpt>
      <trkpt lat="43.44318" lon="6.37036">
        <ele>85.9</ele>
        <time>2023-05-31T08:36:40.000Z</time>
      </trkpt>
      <trkpt lat="43.44317" lon="6.37049">
        <ele>86.2</ele>
        <time>2023-05-31T08:37:15.000Z</time>
      </trkpt>
      <trkpt lat="43.44321" lon="6.37062">
        <ele>85.8</ele>
        <time>2023-05-31T08:37:21.000Z</time>
      </trkpt>
      <trkpt lat="43.44323" lon="6.37075">
        <ele>86</ele>
        <time>2023-05-31T08:37:28.000Z</time>
      </trkpt>
      <trkpt lat="43.44326" lon="6.37082">
        <ele>85.6</ele>
        <time>2023-05-31T08:37:37.000Z</time>
      </trkpt>
      <trkpt lat="43.44324" lon="6.37095">
        <ele>85.4</ele>
        <time>2023-05-31T08:37:52.000Z</time>
      </trkpt>
      <trkpt lat="43.44328" lon="6.37108">
        <ele>85.3</ele>
        <time>2023-05-31T08:37:58.000Z</time>
      </trkpt>
      <trkpt lat="43.44331" lon="6.3712">
        <ele>85.5</ele>
        <time>2023-05-31T08:38:04.000Z</time>
      </trkpt>
      <trkpt lat="43.44331" lon="6.37127">
        <ele>86</ele>
        <time>2023-05-31T08:38:12.000Z</time>
      </trkpt>
      <trkpt lat="43.44337" lon="6.37137">
        <ele>86.2</ele>
        <time>2023-05-31T08:38:21.000Z</time>
      </trkpt>
      <trkpt lat="43.44333" lon="6.37151">
        <ele>85.7</ele>
        <time>2023-05-31T08:38:28.000Z</time>
      </trkpt>
      <trkpt lat="43.44331" lon="6.37164">
        <ele>86.4</ele>
        <time>2023-05-31T08:38:34.000Z</time>
      </trkpt>
      <trkpt lat="43.44328" lon="6.37168">
        <ele>86.4</ele>
        <time>2023-05-31T08:38:41.000Z</time>
      </trkpt>
      <trkpt lat="43.44326" lon="6.37181">
        <ele>86.9</ele>
        <time>2023-05-31T08:38:59.000Z</time>
      </trkpt>
      <trkpt lat="43.4432" lon="6.37191">
        <ele>87</ele>
        <time>2023-05-31T08:39:06.000Z</time>
      </trkpt>
      <trkpt lat="43.44315" lon="6.37202">
        <ele>87.2</ele>
        <time>2023-05-31T08:39:12.000Z</time>
      </trkpt>
      <trkpt lat="43.44305" lon="6.37205">
        <ele>87</ele>
        <time>2023-05-31T08:39:21.000Z</time>
      </trkpt>
      <trkpt lat="43.44296" lon="6.37209">
        <ele>86.4</ele>
        <time>2023-05-31T08:39:29.000Z</time>
      </trkpt>
      <trkpt lat="43.4429" lon="6.37218">
        <ele>86.4</ele>
        <time>2023-05-31T08:39:35.000Z</time>
      </trkpt>
      <trkpt lat="43.44283" lon="6.37227">
        <ele>85.9</ele>
        <time>2023-05-31T08:39:43.000Z</time>
      </trkpt>
      <trkpt lat="43.44272" lon="6.37231">
        <ele>85.1</ele>
        <time>2023-05-31T08:39:50.000Z</time>
      </trkpt>
      <trkpt lat="43.44262" lon="6.37232">
        <ele>84.9</ele>
        <time>2023-05-31T08:39:58.000Z</time>
      </trkpt>
      <trkpt lat="43.44253" lon="6.37236">
        <ele>84.5</ele>
        <time>2023-05-31T08:40:05.000Z</time>
      </trkpt>
      <trkpt lat="43.44246" lon="6.37227">
        <ele>85.2</ele>
        <time>2023-05-31T08:40:18.000Z</time>
      </trkpt>
      <trkpt lat="43.44239" lon="6.37229">
        <ele>85.6</ele>
        <time>2023-05-31T08:40:36.000Z</time>
      </trkpt>
      <trkpt lat="43.4423" lon="6.37225">
        <ele>85.5</ele>
        <time>2023-05-31T08:40:51.000Z</time>
      </trkpt>
      <trkpt lat="43.44223" lon="6.37217">
        <ele>85.8</ele>
        <time>2023-05-31T08:40:58.000Z</time>
      </trkpt>
      <trkpt lat="43.44212" lon="6.37215">
        <ele>85.6</ele>
        <time>2023-05-31T08:41:15.000Z</time>
      </trkpt>
      <trkpt lat="43.44202" lon="6.37215">
        <ele>85.5</ele>
        <time>2023-05-31T08:41:21.000Z</time>
      </trkpt>
      <trkpt lat="43.44194" lon="6.37219">
        <ele>85.7</ele>
        <time>2023-05-31T08:41:30.000Z</time>
      </trkpt>
      <trkpt lat="43.44193" lon="6.37218">
        <ele>85.5</ele>
        <time>2023-05-31T08:41:35.000Z</time>
      </trkpt>
      <trkpt lat="43.44184" lon="6.37217">
        <ele>85.5</ele>
        <time>2023-05-31T08:41:51.000Z</time>
      </trkpt>
      <trkpt lat="43.44174" lon="6.3721">
        <ele>86</ele>
        <time>2023-05-31T08:42:06.000Z</time>
      </trkpt>
      <trkpt lat="43.44165" lon="6.37214">
        <ele>85.9</ele>
        <time>2023-05-31T08:42:13.000Z</time>
      </trkpt>
      <trkpt lat="43.44156" lon="6.37212">
        <ele>85.7</ele>
        <time>2023-05-31T08:42:20.000Z</time>
      </trkpt>
      <trkpt lat="43.44147" lon="6.37213">
        <ele>85.8</ele>
        <time>2023-05-31T08:42:27.000Z</time>
      </trkpt>
      <trkpt lat="43.44136" lon="6.37216">
        <ele>85.6</ele>
        <time>2023-05-31T08:42:38.000Z</time>
      </trkpt>
      <trkpt lat="43.44127" lon="6.37225">
        <ele>85.5</ele>
        <time>2023-05-31T08:42:46.000Z</time>
      </trkpt>
      <trkpt lat="43.44119" lon="6.37233">
        <ele>86.4</ele>
        <time>2023-05-31T08:42:53.000Z</time>
      </trkpt>
      <trkpt lat="43.44112" lon="6.37242">
        <ele>86</ele>
        <time>2023-05-31T08:42:59.000Z</time>
      </trkpt>
      <trkpt lat="43.44102" lon="6.37246">
        <ele>85.5</ele>
        <time>2023-05-31T08:43:05.000Z</time>
      </trkpt>
      <trkpt lat="43.44092" lon="6.37247">
        <ele>86.3</ele>
        <time>2023-05-31T08:43:10.000Z</time>
      </trkpt>
      <trkpt lat="43.4408" lon="6.37248">
        <ele>85.8</ele>
        <time>2023-05-31T08:43:19.000Z</time>
      </trkpt>
      <trkpt lat="43.44073" lon="6.3724">
        <ele>86.9</ele>
        <time>2023-05-31T08:43:39.000Z</time>
      </trkpt>
      <trkpt lat="43.44068" lon="6.37229">
        <ele>85.7</ele>
        <time>2023-05-31T08:43:50.000Z</time>
      </trkpt>
      <trkpt lat="43.44058" lon="6.37224">
        <ele>86.2</ele>
        <time>2023-05-31T08:43:59.000Z</time>
      </trkpt>
      <trkpt lat="43.44049" lon="6.37224">
        <ele>85.9</ele>
        <time>2023-05-31T08:44:05.000Z</time>
      </trkpt>
      <trkpt lat="43.4404" lon="6.37223">
        <ele>86.7</ele>
        <time>2023-05-31T08:44:12.000Z</time>
      </trkpt>
      <trkpt lat="43.4403" lon="6.37223">
        <ele>86.6</ele>
        <time>2023-05-31T08:44:21.000Z</time>
      </trkpt>
      <trkpt lat="43.44021" lon="6.3723">
        <ele>86.7</ele>
        <time>2023-05-31T08:44:27.000Z</time>
      </trkpt>
      <trkpt lat="43.44011" lon="6.37228">
        <ele>86.6</ele>
        <time>2023-05-31T08:44:33.000Z</time>
      </trkpt>
      <trkpt lat="43.44002" lon="6.37228">
        <ele>85.5</ele>
        <time>2023-05-31T08:44:38.000Z</time>
      </trkpt>
      <trkpt lat="43.43992" lon="6.37229">
        <ele>86.5</ele>
        <time>2023-05-31T08:44:45.000Z</time>
      </trkpt>
      <trkpt lat="43.43983" lon="6.37236">
        <ele>85.9</ele>
        <time>2023-05-31T08:44:52.000Z</time>
      </trkpt>
      <trkpt lat="43.43975" lon="6.37244">
        <ele>86.3</ele>
        <time>2023-05-31T08:45:00.000Z</time>
      </trkpt>
      <trkpt lat="43.43966" lon="6.37249">
        <ele>86.2</ele>
        <time>2023-05-31T08:45:04.000Z</time>
      </trkpt>
      <trkpt lat="43.43955" lon="6.37256">
        <ele>85.5</ele>
        <time>2023-05-31T08:45:10.000Z</time>
      </trkpt>
      <trkpt lat="43.43947" lon="6.37262">
        <ele>85.3</ele>
        <time>2023-05-31T08:45:14.000Z</time>
      </trkpt>
      <trkpt lat="43.43939" lon="6.37268">
        <ele>84.9</ele>
        <time>2023-05-31T08:45:19.000Z</time>
      </trkpt>
      <trkpt lat="43.4393" lon="6.37277">
        <ele>84.9</ele>
        <time>2023-05-31T08:45:26.000Z</time>
      </trkpt>
      <trkpt lat="43.43924" lon="6.37289">
        <ele>85.8</ele>
        <time>2023-05-31T08:45:32.000Z</time>
      </trkpt>
      <trkpt lat="43.43923" lon="6.37303">
        <ele>85.5</ele>
        <time>2023-05-31T08:45:38.000Z</time>
      </trkpt>
      <trkpt lat="43.43928" lon="6.37315">
        <ele>86.1</ele>
        <time>2023-05-31T08:45:44.000Z</time>
      </trkpt>
      <trkpt lat="43.43934" lon="6.37325">
        <ele>85.4</ele>
        <time>2023-05-31T08:45:50.000Z</time>
      </trkpt>
      <trkpt lat="43.43937" lon="6.37338">
        <ele>85.7</ele>
        <time>2023-05-31T08:45:57.000Z</time>
      </trkpt>
      <trkpt lat="43.4394" lon="6.37351">
        <ele>86</ele>
        <time>2023-05-31T08:46:03.000Z</time>
      </trkpt>
      <trkpt lat="43.43945" lon="6.37362">
        <ele>85.4</ele>
        <time>2023-05-31T08:46:10.000Z</time>
      </trkpt>
      <trkpt lat="43.43947" lon="6.37375">
        <ele>84.9</ele>
        <time>2023-05-31T08:46:16.000Z</time>
      </trkpt>
      <trkpt lat="43.43952" lon="6.37388">
        <ele>86</ele>
        <time>2023-05-31T08:46:23.000Z</time>
      </trkpt>
      <trkpt lat="43.43957" lon="6.374">
        <ele>85.4</ele>
        <time>2023-05-31T08:46:31.000Z</time>
      </trkpt>
      <trkpt lat="43.43959" lon="6.37412">
        <ele>85.9</ele>
        <time>2023-05-31T08:46:38.000Z</time>
      </trkpt>
      <trkpt lat="43.4396" lon="6.37425">
        <ele>85.6</ele>
        <time>2023-05-31T08:46:43.000Z</time>
      </trkpt>
      <trkpt lat="43.43961" lon="6.37437">
        <ele>85.8</ele>
        <time>2023-05-31T08:46:49.000Z</time>
      </trkpt>
      <trkpt lat="43.43967" lon="6.37449">
        <ele>86.2</ele>
        <time>2023-05-31T08:46:57.000Z</time>
      </trkpt>
      <trkpt lat="43.4397" lon="6.37461">
        <ele>86.2</ele>
        <time>2023-05-31T08:47:03.000Z</time>
      </trkpt>
      <trkpt lat="43.43976" lon="6.37471">
        <ele>86</ele>
        <time>2023-05-31T08:47:10.000Z</time>
      </trkpt>
      <trkpt lat="43.4398" lon="6.37484">
        <ele>85.9</ele>
        <time>2023-05-31T08:47:19.000Z</time>
      </trkpt>
      <trkpt lat="43.43976" lon="6.37498">
        <ele>86.3</ele>
        <time>2023-05-31T08:47:24.000Z</time>
      </trkpt>
      <trkpt lat="43.4397" lon="6.37507">
        <ele>86.6</ele>
        <time>2023-05-31T08:47:32.000Z</time>
      </trkpt>
      <trkpt lat="43.43966" lon="6.37518">
        <ele>87.3</ele>
        <time>2023-05-31T08:47:42.000Z</time>
      </trkpt>
      <trkpt lat="43.43962" lon="6.3753">
        <ele>87.5</ele>
        <time>2023-05-31T08:47:47.000Z</time>
      </trkpt>
      <trkpt lat="43.43956" lon="6.37524">
        <ele>87</ele>
        <time>2023-05-31T08:48:03.000Z</time>
      </trkpt>
      <trkpt lat="43.43953" lon="6.37524">
        <ele>87.9</ele>
        <time>2023-05-31T08:48:08.000Z</time>
      </trkpt>
      <trkpt lat="43.43963" lon="6.37513">
        <ele>88.1</ele>
        <time>2023-05-31T08:48:20.000Z</time>
      </trkpt>
      <trkpt lat="43.43956" lon="6.37522">
        <ele>88.3</ele>
        <time>2023-05-31T08:48:43.000Z</time>
      </trkpt>
      <trkpt lat="43.43949" lon="6.37537">
        <ele>87</ele>
        <time>2023-05-31T08:49:01.000Z</time>
      </trkpt>
      <trkpt lat="43.43961" lon="6.37536">
        <ele>87.7</ele>
        <time>2023-05-31T08:49:12.000Z</time>
      </trkpt>
      <trkpt lat="43.43972" lon="6.37537">
        <ele>87.8</ele>
        <time>2023-05-31T08:49:17.000Z</time>
      </trkpt>
      <trkpt lat="43.43962" lon="6.37534">
        <ele>88.1</ele>
        <time>2023-05-31T08:49:33.000Z</time>
      </trkpt>
      <trkpt lat="43.43957" lon="6.37544">
        <ele>88.1</ele>
        <time>2023-05-31T08:49:42.000Z</time>
      </trkpt>
      <trkpt lat="43.43962" lon="6.37534">
        <ele>88</ele>
        <time>2023-05-31T08:49:53.000Z</time>
      </trkpt>
      <trkpt lat="43.43967" lon="6.37549">
        <ele>88</ele>
        <time>2023-05-31T08:50:16.000Z</time>
      </trkpt>
      <trkpt lat="43.43959" lon="6.37554">
        <ele>89.4</ele>
        <time>2023-05-31T08:50:26.000Z</time>
      </trkpt>
      <trkpt lat="43.43956" lon="6.37571">
        <ele>90</ele>
        <time>2023-05-31T08:50:45.000Z</time>
      </trkpt>
      <trkpt lat="43.43952" lon="6.37584">
        <ele>91.2</ele>
        <time>2023-05-31T08:50:51.000Z</time>
      </trkpt>
      <trkpt lat="43.43952" lon="6.37598">
        <ele>91.5</ele>
        <time>2023-05-31T08:50:57.000Z</time>
      </trkpt>
      <trkpt lat="43.43946" lon="6.37607">
        <ele>91.6</ele>
        <time>2023-05-31T08:51:02.000Z</time>
      </trkpt>
      <trkpt lat="43.43946" lon="6.3762">
        <ele>92.4</ele>
        <time>2023-05-31T08:51:10.000Z</time>
      </trkpt>
      <trkpt lat="43.4394" lon="6.3763">
        <ele>92.6</ele>
        <time>2023-05-31T08:51:16.000Z</time>
      </trkpt>
      <trkpt lat="43.43939" lon="6.37643">
        <ele>92</ele>
        <time>2023-05-31T08:51:23.000Z</time>
      </trkpt>
      <trkpt lat="43.43936" lon="6.37657">
        <ele>92.3</ele>
        <time>2023-05-31T08:51:30.000Z</time>
      </trkpt>
      <trkpt lat="43.43939" lon="6.3767">
        <ele>92.7</ele>
        <time>2023-05-31T08:51:38.000Z</time>
      </trkpt>
      <trkpt lat="43.43937" lon="6.37684">
        <ele>94.3</ele>
        <time>2023-05-31T08:51:44.000Z</time>
      </trkpt>
      <trkpt lat="43.43939" lon="6.37699">
        <ele>95.1</ele>
        <time>2023-05-31T08:51:58.000Z</time>
      </trkpt>
      <trkpt lat="43.43934" lon="6.3771">
        <ele>95.2</ele>
        <time>2023-05-31T08:52:07.000Z</time>
      </trkpt>
      <trkpt lat="43.4393" lon="6.37723">
        <ele>97</ele>
        <time>2023-05-31T08:52:13.000Z</time>
      </trkpt>
      <trkpt lat="43.4393" lon="6.37735">
        <ele>98</ele>
        <time>2023-05-31T08:52:20.000Z</time>
      </trkpt>
      <trkpt lat="43.43926" lon="6.37747">
        <ele>98.7</ele>
        <time>2023-05-31T08:52:26.000Z</time>
      </trkpt>
      <trkpt lat="43.43921" lon="6.37761">
        <ele>99.5</ele>
        <time>2023-05-31T08:52:31.000Z</time>
      </trkpt>
      <trkpt lat="43.43915" lon="6.37773">
        <ele>99.7</ele>
        <time>2023-05-31T08:52:37.000Z</time>
      </trkpt>
      <trkpt lat="43.43913" lon="6.37785">
        <ele>101.6</ele>
        <time>2023-05-31T08:52:50.000Z</time>
      </trkpt>
      <trkpt lat="43.43917" lon="6.37797">
        <ele>102.2</ele>
        <time>2023-05-31T08:52:57.000Z</time>
      </trkpt>
      <trkpt lat="43.43925" lon="6.37804">
        <ele>104</ele>
        <time>2023-05-31T08:53:13.000Z</time>
      </trkpt>
      <trkpt lat="43.43927" lon="6.37826">
        <ele>104</ele>
        <time>2023-05-31T08:53:19.000Z</time>
      </trkpt>
      <trkpt lat="43.43928" lon="6.3784">
        <ele>104.9</ele>
        <time>2023-05-31T08:53:22.000Z</time>
      </trkpt>
      <trkpt lat="43.43927" lon="6.3786">
        <ele>105.5</ele>
        <time>2023-05-31T08:53:32.000Z</time>
      </trkpt>
      <trkpt lat="43.43923" lon="6.37875">
        <ele>105.5</ele>
        <time>2023-05-31T08:53:40.000Z</time>
      </trkpt>
      <trkpt lat="43.43926" lon="6.37886">
        <ele>105</ele>
        <time>2023-05-31T08:53:46.000Z</time>
      </trkpt>
      <trkpt lat="43.43921" lon="6.37897">
        <ele>106.5</ele>
        <time>2023-05-31T08:53:53.000Z</time>
      </trkpt>
      <trkpt lat="43.43917" lon="6.37908">
        <ele>106.1</ele>
        <time>2023-05-31T08:54:00.000Z</time>
      </trkpt>
      <trkpt lat="43.43912" lon="6.37919">
        <ele>109.4</ele>
        <time>2023-05-31T08:54:21.000Z</time>
      </trkpt>
      <trkpt lat="43.43914" lon="6.37933">
        <ele>109</ele>
        <time>2023-05-31T08:54:29.000Z</time>
      </trkpt>
      <trkpt lat="43.43914" lon="6.37946">
        <ele>108.9</ele>
        <time>2023-05-31T08:54:38.000Z</time>
      </trkpt>
      <trkpt lat="43.43921" lon="6.37956">
        <ele>108.4</ele>
        <time>2023-05-31T08:54:53.000Z</time>
      </trkpt>
      <trkpt lat="43.43915" lon="6.37968">
        <ele>110.7</ele>
        <time>2023-05-31T08:55:16.000Z</time>
      </trkpt>
      <trkpt lat="43.43915" lon="6.37971">
        <ele>111.1</ele>
        <time>2023-05-31T08:55:25.000Z</time>
      </trkpt>
      <trkpt lat="43.43909" lon="6.37983">
        <ele>114.3</ele>
        <time>2023-05-31T08:55:40.000Z</time>
      </trkpt>
      <trkpt lat="43.43899" lon="6.37983">
        <ele>115.6</ele>
        <time>2023-05-31T08:55:47.000Z</time>
      </trkpt>
      <trkpt lat="43.43889" lon="6.37981">
        <ele>116.6</ele>
        <time>2023-05-31T08:55:53.000Z</time>
      </trkpt>
      <trkpt lat="43.43893" lon="6.37994">
        <ele>117.9</ele>
        <time>2023-05-31T08:56:01.000Z</time>
      </trkpt>
      <trkpt lat="43.43898" lon="6.38006">
        <ele>118.8</ele>
        <time>2023-05-31T08:56:05.000Z</time>
      </trkpt>
      <trkpt lat="43.43897" lon="6.38019">
        <ele>119.2</ele>
        <time>2023-05-31T08:56:17.000Z</time>
      </trkpt>
      <trkpt lat="43.43897" lon="6.38032">
        <ele>120.4</ele>
        <time>2023-05-31T08:56:24.000Z</time>
      </trkpt>
      <trkpt lat="43.43885" lon="6.38055">
        <ele>120</ele>
        <time>2023-05-31T08:56:31.000Z</time>
      </trkpt>
      <trkpt lat="43.43891" lon="6.38064">
        <ele>123.4</ele>
        <time>2023-05-31T08:56:50.000Z</time>
      </trkpt>
      <trkpt lat="43.43894" lon="6.38077">
        <ele>124</ele>
        <time>2023-05-31T08:57:01.000Z</time>
      </trkpt>
      <trkpt lat="43.43904" lon="6.38077">
        <ele>125</ele>
        <time>2023-05-31T08:57:12.000Z</time>
      </trkpt>
      <trkpt lat="43.43894" lon="6.38089">
        <ele>126</ele>
        <time>2023-05-31T08:57:28.000Z</time>
      </trkpt>
      <trkpt lat="43.43876" lon="6.38098">
        <ele>127</ele>
        <time>2023-05-31T08:57:36.000Z</time>
      </trkpt>
      <trkpt lat="43.43862" lon="6.38103">
        <ele>127.6</ele>
        <time>2023-05-31T08:57:39.000Z</time>
      </trkpt>
      <trkpt lat="43.43871" lon="6.38108">
        <ele>127</ele>
        <time>2023-05-31T08:57:42.000Z</time>
      </trkpt>
      <trkpt lat="43.43871" lon="6.38123">
        <ele>130</ele>
        <time>2023-05-31T08:58:07.000Z</time>
      </trkpt>
      <trkpt lat="43.43861" lon="6.38126">
        <ele>130.3</ele>
        <time>2023-05-31T08:58:14.000Z</time>
      </trkpt>
      <trkpt lat="43.43859" lon="6.38142">
        <ele>131.9</ele>
        <time>2023-05-31T08:58:37.000Z</time>
      </trkpt>
      <trkpt lat="43.43855" lon="6.38154">
        <ele>132.3</ele>
        <time>2023-05-31T08:58:48.000Z</time>
      </trkpt>
      <trkpt lat="43.43857" lon="6.38167">
        <ele>132.9</ele>
        <time>2023-05-31T08:58:58.000Z</time>
      </trkpt>
      <trkpt lat="43.4385" lon="6.38176">
        <ele>134.1</ele>
        <time>2023-05-31T08:59:08.000Z</time>
      </trkpt>
      <trkpt lat="43.43849" lon="6.38189">
        <ele>136.3</ele>
        <time>2023-05-31T08:59:23.000Z</time>
      </trkpt>
      <trkpt lat="43.43848" lon="6.38202">
        <ele>138.2</ele>
        <time>2023-05-31T08:59:32.000Z</time>
      </trkpt>
      <trkpt lat="43.43845" lon="6.38214">
        <ele>138.5</ele>
        <time>2023-05-31T08:59:49.000Z</time>
      </trkpt>
      <trkpt lat="43.43849" lon="6.38227">
        <ele>140.8</ele>
        <time>2023-05-31T08:59:59.000Z</time>
      </trkpt>
      <trkpt lat="43.43852" lon="6.38239">
        <ele>140.7</ele>
        <time>2023-05-31T09:00:07.000Z</time>
      </trkpt>
      <trkpt lat="43.43851" lon="6.38251">
        <ele>141.2</ele>
        <time>2023-05-31T09:00:13.000Z</time>
      </trkpt>
      <trkpt lat="43.43861" lon="6.38247">
        <ele>141.3</ele>
        <time>2023-05-31T09:00:21.000Z</time>
      </trkpt>
      <trkpt lat="43.43857" lon="6.38258">
        <ele>143.5</ele>
        <time>2023-05-31T09:00:28.000Z</time>
      </trkpt>
      <trkpt lat="43.43857" lon="6.38271">
        <ele>143.6</ele>
        <time>2023-05-31T09:00:37.000Z</time>
      </trkpt>
      <trkpt lat="43.43856" lon="6.38285">
        <ele>145.4</ele>
        <time>2023-05-31T09:00:52.000Z</time>
      </trkpt>
      <trkpt lat="43.43853" lon="6.38297">
        <ele>146.4</ele>
        <time>2023-05-31T09:01:03.000Z</time>
      </trkpt>
      <trkpt lat="43.43842" lon="6.38306">
        <ele>146</ele>
        <time>2023-05-31T09:01:15.000Z</time>
      </trkpt>
      <trkpt lat="43.43833" lon="6.38318">
        <ele>147</ele>
        <time>2023-05-31T09:01:21.000Z</time>
      </trkpt>
      <trkpt lat="43.43831" lon="6.38331">
        <ele>147.7</ele>
        <time>2023-05-31T09:01:29.000Z</time>
      </trkpt>
      <trkpt lat="43.4383" lon="6.38349">
        <ele>148.8</ele>
        <time>2023-05-31T09:01:40.000Z</time>
      </trkpt>
      <trkpt lat="43.43832" lon="6.38361">
        <ele>149.8</ele>
        <time>2023-05-31T09:01:50.000Z</time>
      </trkpt>
      <trkpt lat="43.43827" lon="6.38372">
        <ele>150.5</ele>
        <time>2023-05-31T09:02:00.000Z</time>
      </trkpt>
      <trkpt lat="43.43835" lon="6.38382">
        <ele>150</ele>
        <time>2023-05-31T09:02:11.000Z</time>
      </trkpt>
      <trkpt lat="43.43834" lon="6.38398">
        <ele>151.5</ele>
        <time>2023-05-31T09:02:18.000Z</time>
      </trkpt>
      <trkpt lat="43.43828" lon="6.38418">
        <ele>152.5</ele>
        <time>2023-05-31T09:02:21.000Z</time>
      </trkpt>
      <trkpt lat="43.4382" lon="6.38434">
        <ele>151.5</ele>
        <time>2023-05-31T09:02:23.000Z</time>
      </trkpt>
      <trkpt lat="43.43814" lon="6.38452">
        <ele>152.5</ele>
        <time>2023-05-31T09:02:25.000Z</time>
      </trkpt>
      <trkpt lat="43.43806" lon="6.38468">
        <ele>152.6</ele>
        <time>2023-05-31T09:02:27.000Z</time>
      </trkpt>
      <trkpt lat="43.43798" lon="6.38483">
        <ele>152.8</ele>
        <time>2023-05-31T09:02:29.000Z</time>
      </trkpt>
      <trkpt lat="43.43792" lon="6.38495">
        <ele>153.8</ele>
        <time>2023-05-31T09:02:31.000Z</time>
      </trkpt>
      <trkpt lat="43.438" lon="6.38485">
        <ele>152.9</ele>
        <time>2023-05-31T09:02:36.000Z</time>
      </trkpt>
      <trkpt lat="43.43808" lon="6.38477">
        <ele>153.6</ele>
        <time>2023-05-31T09:02:41.000Z</time>
      </trkpt>
      <trkpt lat="43.43819" lon="6.38467">
        <ele>154.3</ele>
        <time>2023-05-31T09:02:45.000Z</time>
      </trkpt>
      <trkpt lat="43.43828" lon="6.38459">
        <ele>154.8</ele>
        <time>2023-05-31T09:02:49.000Z</time>
      </trkpt>
      <trkpt lat="43.43837" lon="6.38449">
        <ele>154</ele>
        <time>2023-05-31T09:02:54.000Z</time>
      </trkpt>
      <trkpt lat="43.43845" lon="6.38455">
        <ele>154.7</ele>
        <time>2023-05-31T09:03:02.000Z</time>
      </trkpt>
      <trkpt lat="43.4385" lon="6.38466">
        <ele>156.6</ele>
        <time>2023-05-31T09:03:19.000Z</time>
      </trkpt>
      <trkpt lat="43.43848" lon="6.38475">
        <ele>158.1</ele>
        <time>2023-05-31T09:03:33.000Z</time>
      </trkpt>
      <trkpt lat="43.43844" lon="6.38478">
        <ele>157.1</ele>
        <time>2023-05-31T09:03:58.000Z</time>
      </trkpt>
      <trkpt lat="43.43848" lon="6.38477">
        <ele>157.6</ele>
        <time>2023-05-31T09:04:09.000Z</time>
      </trkpt>
      <trkpt lat="43.43858" lon="6.38471">
        <ele>158</ele>
        <time>2023-05-31T09:04:36.000Z</time>
      </trkpt>
      <trkpt lat="43.43865" lon="6.38478">
        <ele>157.5</ele>
        <time>2023-05-31T09:04:51.000Z</time>
      </trkpt>
      <trkpt lat="43.43863" lon="6.3849">
        <ele>157.8</ele>
        <time>2023-05-31T09:05:02.000Z</time>
      </trkpt>
      <trkpt lat="43.43862" lon="6.38492">
        <ele>157.6</ele>
        <time>2023-05-31T09:05:07.000Z</time>
      </trkpt>
      <trkpt lat="43.43864" lon="6.38505">
        <ele>157.4</ele>
        <time>2023-05-31T09:05:18.000Z</time>
      </trkpt>
      <trkpt lat="43.43873" lon="6.3851">
        <ele>158</ele>
        <time>2023-05-31T09:05:28.000Z</time>
      </trkpt>
      <trkpt lat="43.43883" lon="6.38513">
        <ele>158.1</ele>
        <time>2023-05-31T09:05:41.000Z</time>
      </trkpt>
      <trkpt lat="43.43889" lon="6.38511">
        <ele>158.6</ele>
        <time>2023-05-31T09:05:51.000Z</time>
      </trkpt>
      <trkpt lat="43.43899" lon="6.38511">
        <ele>158.1</ele>
        <time>2023-05-31T09:06:02.000Z</time>
      </trkpt>
      <trkpt lat="43.43908" lon="6.38512">
        <ele>161.3</ele>
        <time>2023-05-31T09:06:09.000Z</time>
      </trkpt>
      <trkpt lat="43.43918" lon="6.38511">
        <ele>162.9</ele>
        <time>2023-05-31T09:06:18.000Z</time>
      </trkpt>
      <trkpt lat="43.43927" lon="6.38513">
        <ele>166.7</ele>
        <time>2023-05-31T09:06:25.000Z</time>
      </trkpt>
      <trkpt lat="43.43937" lon="6.38509">
        <ele>166.4</ele>
        <time>2023-05-31T09:06:34.000Z</time>
      </trkpt>
      <trkpt lat="43.43947" lon="6.38508">
        <ele>170.4</ele>
        <time>2023-05-31T09:06:42.000Z</time>
      </trkpt>
      <trkpt lat="43.43957" lon="6.38507">
        <ele>171.7</ele>
        <time>2023-05-31T09:06:49.000Z</time>
      </trkpt>
      <trkpt lat="43.43966" lon="6.38506">
        <ele>171.2</ele>
        <time>2023-05-31T09:06:55.000Z</time>
      </trkpt>
      <trkpt lat="43.43975" lon="6.38506">
        <ele>172.7</ele>
        <time>2023-05-31T09:07:04.000Z</time>
      </trkpt>
      <trkpt lat="43.43985" lon="6.38506">
        <ele>175</ele>
        <time>2023-05-31T09:07:12.000Z</time>
      </trkpt>
      <trkpt lat="43.43993" lon="6.38502">
        <ele>173.2</ele>
        <time>2023-05-31T09:07:16.000Z</time>
      </trkpt>
      <trkpt lat="43.44003" lon="6.38501">
        <ele>176.7</ele>
        <time>2023-05-31T09:07:25.000Z</time>
      </trkpt>
      <trkpt lat="43.44012" lon="6.385">
        <ele>176.2</ele>
        <time>2023-05-31T09:07:34.000Z</time>
      </trkpt>
      <trkpt lat="43.44022" lon="6.38497">
        <ele>178.4</ele>
        <time>2023-05-31T09:07:40.000Z</time>
      </trkpt>
      <trkpt lat="43.44031" lon="6.38491">
        <ele>177.4</ele>
        <time>2023-05-31T09:07:46.000Z</time>
      </trkpt>
      <trkpt lat="43.44042" lon="6.38487">
        <ele>178.9</ele>
        <time>2023-05-31T09:07:51.000Z</time>
      </trkpt>
      <trkpt lat="43.44051" lon="6.38487">
        <ele>178.1</ele>
        <time>2023-05-31T09:07:57.000Z</time>
      </trkpt>
      <trkpt lat="43.44062" lon="6.3848">
        <ele>178.8</ele>
        <time>2023-05-31T09:08:04.000Z</time>
      </trkpt>
      <trkpt lat="43.44072" lon="6.38479">
        <ele>179</ele>
        <time>2023-05-31T09:08:11.000Z</time>
      </trkpt>
      <trkpt lat="43.44081" lon="6.38484">
        <ele>178.9</ele>
        <time>2023-05-31T09:08:20.000Z</time>
      </trkpt>
      <trkpt lat="43.44089" lon="6.3849">
        <ele>178.7</ele>
        <time>2023-05-31T09:08:29.000Z</time>
      </trkpt>
      <trkpt lat="43.44099" lon="6.38488">
        <ele>178.7</ele>
        <time>2023-05-31T09:08:35.000Z</time>
      </trkpt>
      <trkpt lat="43.44109" lon="6.38493">
        <ele>177.1</ele>
        <time>2023-05-31T09:08:45.000Z</time>
      </trkpt>
      <trkpt lat="43.44119" lon="6.38491">
        <ele>176.9</ele>
        <time>2023-05-31T09:08:50.000Z</time>
      </trkpt>
      <trkpt lat="43.44129" lon="6.38487">
        <ele>176.1</ele>
        <time>2023-05-31T09:08:54.000Z</time>
      </trkpt>
      <trkpt lat="43.44137" lon="6.38496">
        <ele>174.7</ele>
        <time>2023-05-31T09:09:01.000Z</time>
      </trkpt>
      <trkpt lat="43.44146" lon="6.38497">
        <ele>173.8</ele>
        <time>2023-05-31T09:09:06.000Z</time>
      </trkpt>
      <trkpt lat="43.44154" lon="6.38493">
        <ele>172.9</ele>
        <time>2023-05-31T09:09:14.000Z</time>
      </trkpt>
      <trkpt lat="43.44166" lon="6.38489">
        <ele>172.9</ele>
        <time>2023-05-31T09:09:18.000Z</time>
      </trkpt>
      <trkpt lat="43.44175" lon="6.3849">
        <ele>173</ele>
        <time>2023-05-31T09:09:23.000Z</time>
      </trkpt>
      <trkpt lat="43.44185" lon="6.38489">
        <ele>172.7</ele>
        <time>2023-05-31T09:09:27.000Z</time>
      </trkpt>
      <trkpt lat="43.44196" lon="6.3849">
        <ele>172.8</ele>
        <time>2023-05-31T09:09:33.000Z</time>
      </trkpt>
      <trkpt lat="43.44206" lon="6.38489">
        <ele>173.1</ele>
        <time>2023-05-31T09:09:40.000Z</time>
      </trkpt>
      <trkpt lat="43.44216" lon="6.3849">
        <ele>174</ele>
        <time>2023-05-31T09:09:50.000Z</time>
      </trkpt>
      <trkpt lat="43.44225" lon="6.38487">
        <ele>172.4</ele>
        <time>2023-05-31T09:09:55.000Z</time>
      </trkpt>
      <trkpt lat="43.44234" lon="6.38485">
        <ele>173.1</ele>
        <time>2023-05-31T09:10:01.000Z</time>
      </trkpt>
      <trkpt lat="43.44244" lon="6.38479">
        <ele>175</ele>
        <time>2023-05-31T09:10:11.000Z</time>
      </trkpt>
      <trkpt lat="43.44252" lon="6.38473">
        <ele>175.3</ele>
        <time>2023-05-31T09:10:16.000Z</time>
      </trkpt>
      <trkpt lat="43.44262" lon="6.38469">
        <ele>173.9</ele>
        <time>2023-05-31T09:10:23.000Z</time>
      </trkpt>
      <trkpt lat="43.44271" lon="6.38464">
        <ele>175.1</ele>
        <time>2023-05-31T09:10:30.000Z</time>
      </trkpt>
      <trkpt lat="43.44282" lon="6.3846">
        <ele>177.7</ele>
        <time>2023-05-31T09:10:37.000Z</time>
      </trkpt>
      <trkpt lat="43.44291" lon="6.38454">
        <ele>177.4</ele>
        <time>2023-05-31T09:10:42.000Z</time>
      </trkpt>
      <trkpt lat="43.44299" lon="6.38447">
        <ele>176.2</ele>
        <time>2023-05-31T09:10:48.000Z</time>
      </trkpt>
      <trkpt lat="43.44308" lon="6.3844">
        <ele>178.8</ele>
        <time>2023-05-31T09:10:55.000Z</time>
      </trkpt>
      <trkpt lat="43.44312" lon="6.38426">
        <ele>179.7</ele>
        <time>2023-05-31T09:11:04.000Z</time>
      </trkpt>
      <trkpt lat="43.44319" lon="6.38416">
        <ele>178.4</ele>
        <time>2023-05-31T09:11:11.000Z</time>
      </trkpt>
      <trkpt lat="43.44327" lon="6.38406">
        <ele>180.3</ele>
        <time>2023-05-31T09:11:17.000Z</time>
      </trkpt>
      <trkpt lat="43.44335" lon="6.38395">
        <ele>181.3</ele>
        <time>2023-05-31T09:11:23.000Z</time>
      </trkpt>
      <trkpt lat="43.44342" lon="6.38386">
        <ele>180.7</ele>
        <time>2023-05-31T09:11:30.000Z</time>
      </trkpt>
      <trkpt lat="43.4435" lon="6.38377">
        <ele>182.2</ele>
        <time>2023-05-31T09:11:36.000Z</time>
      </trkpt>
      <trkpt lat="43.44358" lon="6.38369">
        <ele>181.8</ele>
        <time>2023-05-31T09:11:43.000Z</time>
      </trkpt>
      <trkpt lat="43.44364" lon="6.38359">
        <ele>181.3</ele>
        <time>2023-05-31T09:11:49.000Z</time>
      </trkpt>
      <trkpt lat="43.44373" lon="6.38353">
        <ele>182.3</ele>
        <time>2023-05-31T09:11:56.000Z</time>
      </trkpt>
      <trkpt lat="43.44382" lon="6.38347">
        <ele>183.3</ele>
        <time>2023-05-31T09:12:02.000Z</time>
      </trkpt>
      <trkpt lat="43.44391" lon="6.38346">
        <ele>183.5</ele>
        <time>2023-05-31T09:12:13.000Z</time>
      </trkpt>
      <trkpt lat="43.444" lon="6.38341">
        <ele>183</ele>
        <time>2023-05-31T09:12:21.000Z</time>
      </trkpt>
      <trkpt lat="43.44408" lon="6.38335">
        <ele>181.7</ele>
        <time>2023-05-31T09:12:29.000Z</time>
      </trkpt>
      <trkpt lat="43.44417" lon="6.3833">
        <ele>181.6</ele>
        <time>2023-05-31T09:12:35.000Z</time>
      </trkpt>
      <trkpt lat="43.44426" lon="6.38322">
        <ele>181.1</ele>
        <time>2023-05-31T09:12:41.000Z</time>
      </trkpt>
      <trkpt lat="43.44435" lon="6.38318">
        <ele>180.4</ele>
        <time>2023-05-31T09:12:48.000Z</time>
      </trkpt>
      <trkpt lat="43.44445" lon="6.38312">
        <ele>179.9</ele>
        <time>2023-05-31T09:12:54.000Z</time>
      </trkpt>
      <trkpt lat="43.44455" lon="6.38308">
        <ele>180</ele>
        <time>2023-05-31T09:12:59.000Z</time>
      </trkpt>
      <trkpt lat="43.44465" lon="6.38304">
        <ele>179.2</ele>
        <time>2023-05-31T09:13:07.000Z</time>
      </trkpt>
      <trkpt lat="43.44474" lon="6.38301">
        <ele>178.4</ele>
        <time>2023-05-31T09:13:16.000Z</time>
      </trkpt>
      <trkpt lat="43.44483" lon="6.38294">
        <ele>178.6</ele>
        <time>2023-05-31T09:13:22.000Z</time>
      </trkpt>
      <trkpt lat="43.44493" lon="6.38289">
        <ele>178.4</ele>
        <time>2023-05-31T09:13:29.000Z</time>
      </trkpt>
      <trkpt lat="43.44501" lon="6.38283">
        <ele>178.1</ele>
        <time>2023-05-31T09:13:37.000Z</time>
      </trkpt>
      <trkpt lat="43.44509" lon="6.38277">
        <ele>178.4</ele>
        <time>2023-05-31T09:13:44.000Z</time>
      </trkpt>
      <trkpt lat="43.44514" lon="6.38265">
        <ele>177.7</ele>
        <time>2023-05-31T09:13:50.000Z</time>
      </trkpt>
      <trkpt lat="43.4452" lon="6.38253">
        <ele>179.3</ele>
        <time>2023-05-31T09:13:56.000Z</time>
      </trkpt>
      <trkpt lat="43.44521" lon="6.38241">
        <ele>178.8</ele>
        <time>2023-05-31T09:14:06.000Z</time>
      </trkpt>
      <trkpt lat="43.44522" lon="6.38237">
        <ele>179</ele>
        <time>2023-05-31T09:14:14.000Z</time>
      </trkpt>
    </trkseg>
  </trk>
</gpx>